<?xml version="1.0" encoding="UTF-8" standalone="no" ?>
<gpx xmlns="http://www.topografix.com/GPX/1/1" xmlns:xsi="http://www.w3.org/2001/XMLSchema-instance" xsi:schemaLocation="http://www.topografix.com/GPX/1/1 http://www.topografix.com/GPX/1/1/gpx.xsd" version="1.1" creator="VisuGPX - https://www.visugpx.com">
  <metadata>
    <name>01/07/2016 Vaison - Crestet et retour</name>
    <desc><![CDATA[Itinéraire de vacances en vélo électrique (VTC).]]></desc>
  </metadata>
  <trk>
    <name><![CDATA[Tracé 1 juil. 2016 10:16:02]]></name>
    <trkseg>
      <trkpt lat="44.23633" lon="5.08994">
        <ele>220.63707660897</ele>
        <time>2016-07-01T08:16:02Z</time>
      </trkpt>
      <trkpt lat="44.23641" lon="5.08994">
        <ele>232.04429748929</ele>
        <time>2016-07-01T08:16:12Z</time>
      </trkpt>
      <trkpt lat="44.23649" lon="5.08999">
        <ele>238.13802272591</ele>
        <time>2016-07-01T08:16:20Z</time>
      </trkpt>
      <trkpt lat="44.23647" lon="5.08991">
        <ele>239.65556395136</ele>
        <time>2016-07-01T08:16:37Z</time>
      </trkpt>
      <trkpt lat="44.23642" lon="5.08981">
        <ele>238.8207901963</ele>
        <time>2016-07-01T08:16:50Z</time>
      </trkpt>
      <trkpt lat="44.2364" lon="5.0897">
        <ele>238.14982567586</ele>
        <time>2016-07-01T08:16:55Z</time>
      </trkpt>
      <trkpt lat="44.23634" lon="5.08959">
        <ele>237.51412517399</ele>
        <time>2016-07-01T08:17:00Z</time>
      </trkpt>
      <trkpt lat="44.23627" lon="5.08953">
        <ele>236.99449590884</ele>
        <time>2016-07-01T08:17:04Z</time>
      </trkpt>
      <trkpt lat="44.2362" lon="5.08945">
        <ele>236.22305580873</ele>
        <time>2016-07-01T08:17:12Z</time>
      </trkpt>
      <trkpt lat="44.23613" lon="5.08941">
        <ele>235.02871803996</ele>
        <time>2016-07-01T08:17:18Z</time>
      </trkpt>
      <trkpt lat="44.23602" lon="5.08944">
        <ele>234.10612094133</ele>
        <time>2016-07-01T08:17:22Z</time>
      </trkpt>
      <trkpt lat="44.23587" lon="5.0895">
        <ele>233.20060848987</ele>
        <time>2016-07-01T08:17:27Z</time>
      </trkpt>
      <trkpt lat="44.23578" lon="5.08956">
        <ele>232.52791819116</ele>
        <time>2016-07-01T08:17:31Z</time>
      </trkpt>
      <trkpt lat="44.23566" lon="5.08962">
        <ele>231.81384484944</ele>
        <time>2016-07-01T08:17:36Z</time>
      </trkpt>
      <trkpt lat="44.23555" lon="5.08968">
        <ele>229.74669218901</ele>
        <time>2016-07-01T08:17:41Z</time>
      </trkpt>
      <trkpt lat="44.23548" lon="5.08974">
        <ele>229.56020149173</ele>
        <time>2016-07-01T08:17:45Z</time>
      </trkpt>
      <trkpt lat="44.23534" lon="5.08982">
        <ele>229.47507017329</ele>
        <time>2016-07-01T08:17:50Z</time>
      </trkpt>
      <trkpt lat="44.23523" lon="5.08985">
        <ele>229.36419841677</ele>
        <time>2016-07-01T08:17:54Z</time>
      </trkpt>
      <trkpt lat="44.23511" lon="5.08991">
        <ele>229.13134875505</ele>
        <time>2016-07-01T08:17:58Z</time>
      </trkpt>
      <trkpt lat="44.23501" lon="5.09002">
        <ele>229.19280797891</ele>
        <time>2016-07-01T08:18:02Z</time>
      </trkpt>
      <trkpt lat="44.235" lon="5.09025">
        <ele>229.37510736843</ele>
        <time>2016-07-01T08:18:07Z</time>
      </trkpt>
      <trkpt lat="44.23504" lon="5.09039">
        <ele>229.66300271932</ele>
        <time>2016-07-01T08:18:12Z</time>
      </trkpt>
      <trkpt lat="44.23502" lon="5.09052">
        <ele>229.91233626572</ele>
        <time>2016-07-01T08:18:17Z</time>
      </trkpt>
      <trkpt lat="44.23496" lon="5.0906">
        <ele>230.11497196983</ele>
        <time>2016-07-01T08:18:21Z</time>
      </trkpt>
      <trkpt lat="44.23488" lon="5.09066">
        <ele>230.11898848782</ele>
        <time>2016-07-01T08:18:25Z</time>
      </trkpt>
      <trkpt lat="44.2348" lon="5.09072">
        <ele>229.98910008125</ele>
        <time>2016-07-01T08:18:29Z</time>
      </trkpt>
      <trkpt lat="44.23472" lon="5.09075">
        <ele>229.60568403725</ele>
        <time>2016-07-01T08:18:33Z</time>
      </trkpt>
      <trkpt lat="44.2346" lon="5.09077">
        <ele>229.10018203923</ele>
        <time>2016-07-01T08:18:38Z</time>
      </trkpt>
      <trkpt lat="44.2345" lon="5.0907">
        <ele>228.54351215913</ele>
        <time>2016-07-01T08:18:42Z</time>
      </trkpt>
      <trkpt lat="44.23449" lon="5.09056">
        <ele>228.09756125209</ele>
        <time>2016-07-01T08:18:46Z</time>
      </trkpt>
      <trkpt lat="44.23452" lon="5.09043">
        <ele>227.7890206303</ele>
        <time>2016-07-01T08:18:51Z</time>
      </trkpt>
      <trkpt lat="44.23452" lon="5.09025">
        <ele>227.54802598721</ele>
        <time>2016-07-01T08:18:55Z</time>
      </trkpt>
      <trkpt lat="44.23448" lon="5.09015">
        <ele>227.11267963856</ele>
        <time>2016-07-01T08:19:00Z</time>
      </trkpt>
      <trkpt lat="44.23444" lon="5.09005">
        <ele>219.24469358904</ele>
        <time>2016-07-01T08:20:35Z</time>
      </trkpt>
      <trkpt lat="44.23442" lon="5.0899">
        <ele>218.89148554645</ele>
        <time>2016-07-01T08:20:39Z</time>
      </trkpt>
      <trkpt lat="44.23437" lon="5.08975">
        <ele>218.59918235463</ele>
        <time>2016-07-01T08:20:44Z</time>
      </trkpt>
      <trkpt lat="44.23431" lon="5.08968">
        <ele>217.56947037323</ele>
        <time>2016-07-01T08:20:52Z</time>
      </trkpt>
      <trkpt lat="44.23429" lon="5.08953">
        <ele>217.37824149848</ele>
        <time>2016-07-01T08:20:57Z</time>
      </trkpt>
      <trkpt lat="44.23425" lon="5.08942">
        <ele>217.10680807863</ele>
        <time>2016-07-01T08:21:02Z</time>
      </trkpt>
      <trkpt lat="44.23422" lon="5.08926">
        <ele>216.56891331582</ele>
        <time>2016-07-01T08:21:06Z</time>
      </trkpt>
      <trkpt lat="44.23418" lon="5.08913">
        <ele>216.11783487292</ele>
        <time>2016-07-01T08:21:10Z</time>
      </trkpt>
      <trkpt lat="44.23405" lon="5.08901">
        <ele>215.6185662338</ele>
        <time>2016-07-01T08:21:14Z</time>
      </trkpt>
      <trkpt lat="44.23389" lon="5.08909">
        <ele>213.90188005451</ele>
        <time>2016-07-01T08:21:18Z</time>
      </trkpt>
      <trkpt lat="44.23375" lon="5.08924">
        <ele>213.51356637563</ele>
        <time>2016-07-01T08:21:23Z</time>
      </trkpt>
      <trkpt lat="44.23362" lon="5.08936">
        <ele>213.51493359642</ele>
        <time>2016-07-01T08:21:28Z</time>
      </trkpt>
      <trkpt lat="44.23354" lon="5.08925">
        <ele>213.86006878366</ele>
        <time>2016-07-01T08:21:33Z</time>
      </trkpt>
      <trkpt lat="44.23361" lon="5.08907">
        <ele>213.82922208997</ele>
        <time>2016-07-01T08:21:37Z</time>
      </trkpt>
      <trkpt lat="44.23377" lon="5.08888">
        <ele>208.65100327866</ele>
        <time>2016-07-01T08:21:42Z</time>
      </trkpt>
      <trkpt lat="44.2339" lon="5.08874">
        <ele>203.6854061926</ele>
        <time>2016-07-01T08:21:46Z</time>
      </trkpt>
      <trkpt lat="44.23405" lon="5.08855">
        <ele>199.28067853035</ele>
        <time>2016-07-01T08:21:51Z</time>
      </trkpt>
      <trkpt lat="44.23421" lon="5.08836">
        <ele>198.86944928405</ele>
        <time>2016-07-01T08:21:56Z</time>
      </trkpt>
      <trkpt lat="44.23434" lon="5.08821">
        <ele>199.97528471397</ele>
        <time>2016-07-01T08:22:00Z</time>
      </trkpt>
      <trkpt lat="44.23447" lon="5.08807">
        <ele>201.10017538283</ele>
        <time>2016-07-01T08:22:04Z</time>
      </trkpt>
      <trkpt lat="44.23463" lon="5.08791">
        <ele>203.88110196467</ele>
        <time>2016-07-01T08:22:09Z</time>
      </trkpt>
      <trkpt lat="44.23478" lon="5.08775">
        <ele>205.00032914442</ele>
        <time>2016-07-01T08:22:13Z</time>
      </trkpt>
      <trkpt lat="44.23497" lon="5.08755">
        <ele>204.59261773424</ele>
        <time>2016-07-01T08:22:18Z</time>
      </trkpt>
      <trkpt lat="44.23517" lon="5.08733">
        <ele>203.59908752043</ele>
        <time>2016-07-01T08:22:23Z</time>
      </trkpt>
      <trkpt lat="44.23533" lon="5.08715">
        <ele>201.62053273693</ele>
        <time>2016-07-01T08:22:27Z</time>
      </trkpt>
      <trkpt lat="44.23547" lon="5.08697">
        <ele>201.25042777398</ele>
        <time>2016-07-01T08:22:31Z</time>
      </trkpt>
      <trkpt lat="44.23561" lon="5.08681">
        <ele>202.5116454493</ele>
        <time>2016-07-01T08:22:35Z</time>
      </trkpt>
      <trkpt lat="44.23574" lon="5.08673">
        <ele>202.60136436726</ele>
        <time>2016-07-01T08:22:39Z</time>
      </trkpt>
      <trkpt lat="44.23583" lon="5.08665">
        <ele>202.66092476193</ele>
        <time>2016-07-01T08:22:43Z</time>
      </trkpt>
      <trkpt lat="44.23586" lon="5.08643">
        <ele>203.38749389876</ele>
        <time>2016-07-01T08:22:48Z</time>
      </trkpt>
      <trkpt lat="44.23592" lon="5.0862">
        <ele>204.07136644637</ele>
        <time>2016-07-01T08:22:53Z</time>
      </trkpt>
      <trkpt lat="44.236" lon="5.08598">
        <ele>204.72817980292</ele>
        <time>2016-07-01T08:22:57Z</time>
      </trkpt>
      <trkpt lat="44.2361" lon="5.08574">
        <ele>203.45242167797</ele>
        <time>2016-07-01T08:23:01Z</time>
      </trkpt>
      <trkpt lat="44.23624" lon="5.08549">
        <ele>203.56814077489</ele>
        <time>2016-07-01T08:23:06Z</time>
      </trkpt>
      <trkpt lat="44.23643" lon="5.08518">
        <ele>204.35323968497</ele>
        <time>2016-07-01T08:23:11Z</time>
      </trkpt>
      <trkpt lat="44.23655" lon="5.08496">
        <ele>201.03668254867</ele>
        <time>2016-07-01T08:23:15Z</time>
      </trkpt>
      <trkpt lat="44.2367" lon="5.08467">
        <ele>195.98613237528</ele>
        <time>2016-07-01T08:23:20Z</time>
      </trkpt>
      <trkpt lat="44.23679" lon="5.08437">
        <ele>195.15036641348</ele>
        <time>2016-07-01T08:23:25Z</time>
      </trkpt>
      <trkpt lat="44.2368" lon="5.08414">
        <ele>199.35908254875</ele>
        <time>2016-07-01T08:23:29Z</time>
      </trkpt>
      <trkpt lat="44.23678" lon="5.08386">
        <ele>201.76050657351</ele>
        <time>2016-07-01T08:23:33Z</time>
      </trkpt>
      <trkpt lat="44.23685" lon="5.0836">
        <ele>202.08983549059</ele>
        <time>2016-07-01T08:23:38Z</time>
      </trkpt>
      <trkpt lat="44.23693" lon="5.08341">
        <ele>200.02997207293</ele>
        <time>2016-07-01T08:23:42Z</time>
      </trkpt>
      <trkpt lat="44.23699" lon="5.08318">
        <ele>197.36642594064</ele>
        <time>2016-07-01T08:23:46Z</time>
      </trkpt>
      <trkpt lat="44.23696" lon="5.08283">
        <ele>197.20907496168</ele>
        <time>2016-07-01T08:23:51Z</time>
      </trkpt>
      <trkpt lat="44.2369" lon="5.08255">
        <ele>199.67423010126</ele>
        <time>2016-07-01T08:23:55Z</time>
      </trkpt>
      <trkpt lat="44.23686" lon="5.08228">
        <ele>202.11380740992</ele>
        <time>2016-07-01T08:23:59Z</time>
      </trkpt>
      <trkpt lat="44.23691" lon="5.08202">
        <ele>203.57729582618</ele>
        <time>2016-07-01T08:24:03Z</time>
      </trkpt>
      <trkpt lat="44.23704" lon="5.08178">
        <ele>204.34124016032</ele>
        <time>2016-07-01T08:24:07Z</time>
      </trkpt>
      <trkpt lat="44.23722" lon="5.08153">
        <ele>202.42900714616</ele>
        <time>2016-07-01T08:24:12Z</time>
      </trkpt>
      <trkpt lat="44.23738" lon="5.08134">
        <ele>200.12682513542</ele>
        <time>2016-07-01T08:24:16Z</time>
      </trkpt>
      <trkpt lat="44.23756" lon="5.08111">
        <ele>199.32426725764</ele>
        <time>2016-07-01T08:24:21Z</time>
      </trkpt>
      <trkpt lat="44.23766" lon="5.08092">
        <ele>199.51947454559</ele>
        <time>2016-07-01T08:24:25Z</time>
      </trkpt>
      <trkpt lat="44.23777" lon="5.08068">
        <ele>199.52081840905</ele>
        <time>2016-07-01T08:24:29Z</time>
      </trkpt>
      <trkpt lat="44.23788" lon="5.08036">
        <ele>198.50100574314</ele>
        <time>2016-07-01T08:24:34Z</time>
      </trkpt>
      <trkpt lat="44.23793" lon="5.08012">
        <ele>198.7620760811</ele>
        <time>2016-07-01T08:24:38Z</time>
      </trkpt>
      <trkpt lat="44.23796" lon="5.07978">
        <ele>201.14483027666</ele>
        <time>2016-07-01T08:24:43Z</time>
      </trkpt>
      <trkpt lat="44.23793" lon="5.07951">
        <ele>203.18885079678</ele>
        <time>2016-07-01T08:24:48Z</time>
      </trkpt>
      <trkpt lat="44.23787" lon="5.07928">
        <ele>203.69420653396</ele>
        <time>2016-07-01T08:24:52Z</time>
      </trkpt>
      <trkpt lat="44.2379" lon="5.07899">
        <ele>203.26820864866</ele>
        <time>2016-07-01T08:24:56Z</time>
      </trkpt>
      <trkpt lat="44.23791" lon="5.07871">
        <ele>203.0117661032</ele>
        <time>2016-07-01T08:25:00Z</time>
      </trkpt>
      <trkpt lat="44.23789" lon="5.07842">
        <ele>201.21437708109</ele>
        <time>2016-07-01T08:25:04Z</time>
      </trkpt>
      <trkpt lat="44.23789" lon="5.07813">
        <ele>199.16825308684</ele>
        <time>2016-07-01T08:25:08Z</time>
      </trkpt>
      <trkpt lat="44.2379" lon="5.07785">
        <ele>196.2815879569</ele>
        <time>2016-07-01T08:25:12Z</time>
      </trkpt>
      <trkpt lat="44.23796" lon="5.07763">
        <ele>195.48313767715</ele>
        <time>2016-07-01T08:25:16Z</time>
      </trkpt>
      <trkpt lat="44.23806" lon="5.07736">
        <ele>197.51108066754</ele>
        <time>2016-07-01T08:25:21Z</time>
      </trkpt>
      <trkpt lat="44.23815" lon="5.07714">
        <ele>199.56435025708</ele>
        <time>2016-07-01T08:25:25Z</time>
      </trkpt>
      <trkpt lat="44.23826" lon="5.07683">
        <ele>200.00171075451</ele>
        <time>2016-07-01T08:25:30Z</time>
      </trkpt>
      <trkpt lat="44.23838" lon="5.07647">
        <ele>198.25091520679</ele>
        <time>2016-07-01T08:25:35Z</time>
      </trkpt>
      <trkpt lat="44.23846" lon="5.07619">
        <ele>198.29139092001</ele>
        <time>2016-07-01T08:25:39Z</time>
      </trkpt>
      <trkpt lat="44.23859" lon="5.07582">
        <ele>198.96781690564</ele>
        <time>2016-07-01T08:25:44Z</time>
      </trkpt>
      <trkpt lat="44.23864" lon="5.07558">
        <ele>198.17140457463</ele>
        <time>2016-07-01T08:25:48Z</time>
      </trkpt>
      <trkpt lat="44.23875" lon="5.07536">
        <ele>197.32946458952</ele>
        <time>2016-07-01T08:25:53Z</time>
      </trkpt>
      <trkpt lat="44.23889" lon="5.07514">
        <ele>194.430484095</ele>
        <time>2016-07-01T08:25:58Z</time>
      </trkpt>
      <trkpt lat="44.23899" lon="5.07499">
        <ele>193.17318340117</ele>
        <time>2016-07-01T08:26:02Z</time>
      </trkpt>
      <trkpt lat="44.23905" lon="5.07487">
        <ele>193.34410767041</ele>
        <time>2016-07-01T08:26:07Z</time>
      </trkpt>
      <trkpt lat="44.23898" lon="5.07468">
        <ele>194.29566936461</ele>
        <time>2016-07-01T08:26:12Z</time>
      </trkpt>
      <trkpt lat="44.23889" lon="5.07459">
        <ele>194.7100387061</ele>
        <time>2016-07-01T08:26:16Z</time>
      </trkpt>
      <trkpt lat="44.23886" lon="5.07449">
        <ele>194.94279734056</ele>
        <time>2016-07-01T08:26:20Z</time>
      </trkpt>
      <trkpt lat="44.23889" lon="5.07428">
        <ele>194.82180169593</ele>
        <time>2016-07-01T08:26:25Z</time>
      </trkpt>
      <trkpt lat="44.2389" lon="5.07414">
        <ele>194.58433144445</ele>
        <time>2016-07-01T08:26:29Z</time>
      </trkpt>
      <trkpt lat="44.23891" lon="5.07398">
        <ele>194.52554688833</ele>
        <time>2016-07-01T08:26:33Z</time>
      </trkpt>
      <trkpt lat="44.23896" lon="5.07375">
        <ele>194.46490126676</ele>
        <time>2016-07-01T08:26:38Z</time>
      </trkpt>
      <trkpt lat="44.23901" lon="5.07351">
        <ele>194.49144014877</ele>
        <time>2016-07-01T08:26:42Z</time>
      </trkpt>
      <trkpt lat="44.23906" lon="5.07321">
        <ele>193.42504463981</ele>
        <time>2016-07-01T08:26:47Z</time>
      </trkpt>
      <trkpt lat="44.23911" lon="5.07291">
        <ele>192.27886129066</ele>
        <time>2016-07-01T08:26:52Z</time>
      </trkpt>
      <trkpt lat="44.23917" lon="5.07259">
        <ele>193.38310403099</ele>
        <time>2016-07-01T08:26:57Z</time>
      </trkpt>
      <trkpt lat="44.2392" lon="5.07231">
        <ele>195.91682973729</ele>
        <time>2016-07-01T08:27:01Z</time>
      </trkpt>
      <trkpt lat="44.23922" lon="5.07207">
        <ele>197.46309891685</ele>
        <time>2016-07-01T08:27:05Z</time>
      </trkpt>
      <trkpt lat="44.23924" lon="5.07179">
        <ele>198.24605537512</ele>
        <time>2016-07-01T08:27:09Z</time>
      </trkpt>
      <trkpt lat="44.23927" lon="5.07146">
        <ele>198.72647341347</ele>
        <time>2016-07-01T08:27:14Z</time>
      </trkpt>
      <trkpt lat="44.23929" lon="5.07115">
        <ele>197.828953333</ele>
        <time>2016-07-01T08:27:19Z</time>
      </trkpt>
      <trkpt lat="44.23931" lon="5.07081">
        <ele>197.56864922348</ele>
        <time>2016-07-01T08:27:24Z</time>
      </trkpt>
      <trkpt lat="44.23934" lon="5.07055">
        <ele>196.37997037928</ele>
        <time>2016-07-01T08:27:28Z</time>
      </trkpt>
      <trkpt lat="44.23935" lon="5.0702">
        <ele>197.67428361207</ele>
        <time>2016-07-01T08:27:33Z</time>
      </trkpt>
      <trkpt lat="44.23937" lon="5.06992">
        <ele>198.49035880524</ele>
        <time>2016-07-01T08:27:37Z</time>
      </trkpt>
      <trkpt lat="44.23935" lon="5.06964">
        <ele>198.64660489882</ele>
        <time>2016-07-01T08:27:41Z</time>
      </trkpt>
      <trkpt lat="44.2393" lon="5.0693">
        <ele>198.31949857391</ele>
        <time>2016-07-01T08:27:46Z</time>
      </trkpt>
      <trkpt lat="44.23925" lon="5.06902">
        <ele>201.26827801246</ele>
        <time>2016-07-01T08:27:50Z</time>
      </trkpt>
      <trkpt lat="44.23916" lon="5.06878">
        <ele>202.27367991769</ele>
        <time>2016-07-01T08:27:54Z</time>
      </trkpt>
      <trkpt lat="44.2391" lon="5.06846">
        <ele>201.265750267</ele>
        <time>2016-07-01T08:27:59Z</time>
      </trkpt>
      <trkpt lat="44.23911" lon="5.06823">
        <ele>199.77368771134</ele>
        <time>2016-07-01T08:28:03Z</time>
      </trkpt>
      <trkpt lat="44.23912" lon="5.06795">
        <ele>197.43321154871</ele>
        <time>2016-07-01T08:28:07Z</time>
      </trkpt>
      <trkpt lat="44.23893" lon="5.06794">
        <ele>195.24567004672</ele>
        <time>2016-07-01T08:28:12Z</time>
      </trkpt>
      <trkpt lat="44.23889" lon="5.06819">
        <ele>194.86216895744</ele>
        <time>2016-07-01T08:28:16Z</time>
      </trkpt>
      <trkpt lat="44.23888" lon="5.06846">
        <ele>194.18130941866</ele>
        <time>2016-07-01T08:28:21Z</time>
      </trkpt>
      <trkpt lat="44.23889" lon="5.06867">
        <ele>194.2734466122</ele>
        <time>2016-07-01T08:28:25Z</time>
      </trkpt>
      <trkpt lat="44.23889" lon="5.06888">
        <ele>194.62727572376</ele>
        <time>2016-07-01T08:28:29Z</time>
      </trkpt>
      <trkpt lat="44.23891" lon="5.06908">
        <ele>194.72550304001</ele>
        <time>2016-07-01T08:28:33Z</time>
      </trkpt>
      <trkpt lat="44.23892" lon="5.06931">
        <ele>194.99385830916</ele>
        <time>2016-07-01T08:28:38Z</time>
      </trkpt>
      <trkpt lat="44.23894" lon="5.06954">
        <ele>195.70816683635</ele>
        <time>2016-07-01T08:28:43Z</time>
      </trkpt>
      <trkpt lat="44.23895" lon="5.06971">
        <ele>196.48044769492</ele>
        <time>2016-07-01T08:28:47Z</time>
      </trkpt>
      <trkpt lat="44.23895" lon="5.06989">
        <ele>197.01846570188</ele>
        <time>2016-07-01T08:28:52Z</time>
      </trkpt>
      <trkpt lat="44.23896" lon="5.07005">
        <ele>197.5629400337</ele>
        <time>2016-07-01T08:28:56Z</time>
      </trkpt>
      <trkpt lat="44.23898" lon="5.07019">
        <ele>198.23153825726</ele>
        <time>2016-07-01T08:29:00Z</time>
      </trkpt>
      <trkpt lat="44.23894" lon="5.07035">
        <ele>199.09944894292</ele>
        <time>2016-07-01T08:29:05Z</time>
      </trkpt>
      <trkpt lat="44.23882" lon="5.07034">
        <ele>199.93779834311</ele>
        <time>2016-07-01T08:29:10Z</time>
      </trkpt>
      <trkpt lat="44.23872" lon="5.07029">
        <ele>200.48813841081</ele>
        <time>2016-07-01T08:29:14Z</time>
      </trkpt>
      <trkpt lat="44.23858" lon="5.07023">
        <ele>201.22274398948</ele>
        <time>2016-07-01T08:29:19Z</time>
      </trkpt>
      <trkpt lat="44.23839" lon="5.07014">
        <ele>203.12705660604</ele>
        <time>2016-07-01T08:29:24Z</time>
      </trkpt>
      <trkpt lat="44.23826" lon="5.0701">
        <ele>203.45508454241</ele>
        <time>2016-07-01T08:29:28Z</time>
      </trkpt>
      <trkpt lat="44.23813" lon="5.07008">
        <ele>203.94325931963</ele>
        <time>2016-07-01T08:29:32Z</time>
      </trkpt>
      <trkpt lat="44.23797" lon="5.07008">
        <ele>204.85245058461</ele>
        <time>2016-07-01T08:29:37Z</time>
      </trkpt>
      <trkpt lat="44.23785" lon="5.07014">
        <ele>205.58562622049</ele>
        <time>2016-07-01T08:29:41Z</time>
      </trkpt>
      <trkpt lat="44.23777" lon="5.07019">
        <ele>205.95565492799</ele>
        <time>2016-07-01T08:29:45Z</time>
      </trkpt>
      <trkpt lat="44.23769" lon="5.07024">
        <ele>206.53713502881</ele>
        <time>2016-07-01T08:29:49Z</time>
      </trkpt>
      <trkpt lat="44.23756" lon="5.07032">
        <ele>207.72429981469</ele>
        <time>2016-07-01T08:29:54Z</time>
      </trkpt>
      <trkpt lat="44.23744" lon="5.07038">
        <ele>208.76163457199</ele>
        <time>2016-07-01T08:29:58Z</time>
      </trkpt>
      <trkpt lat="44.23732" lon="5.07045">
        <ele>210.16982495958</ele>
        <time>2016-07-01T08:30:03Z</time>
      </trkpt>
      <trkpt lat="44.23721" lon="5.07052">
        <ele>211.69959482307</ele>
        <time>2016-07-01T08:30:08Z</time>
      </trkpt>
      <trkpt lat="44.23718" lon="5.07067">
        <ele>212.61867944772</ele>
        <time>2016-07-01T08:30:12Z</time>
      </trkpt>
      <trkpt lat="44.23726" lon="5.07071">
        <ele>213.24404284056</ele>
        <time>2016-07-01T08:30:16Z</time>
      </trkpt>
      <trkpt lat="44.23738" lon="5.07069">
        <ele>214.37022116182</ele>
        <time>2016-07-01T08:30:21Z</time>
      </trkpt>
      <trkpt lat="44.23752" lon="5.07067">
        <ele>215.29844756379</ele>
        <time>2016-07-01T08:30:25Z</time>
      </trkpt>
      <trkpt lat="44.23763" lon="5.07065">
        <ele>216.11847179588</ele>
        <time>2016-07-01T08:30:29Z</time>
      </trkpt>
      <trkpt lat="44.23775" lon="5.07065">
        <ele>216.94199062902</ele>
        <time>2016-07-01T08:30:33Z</time>
      </trkpt>
      <trkpt lat="44.2379" lon="5.07063">
        <ele>217.99433650372</ele>
        <time>2016-07-01T08:30:38Z</time>
      </trkpt>
      <trkpt lat="44.23797" lon="5.0707">
        <ele>218.7310817567</ele>
        <time>2016-07-01T08:30:42Z</time>
      </trkpt>
      <trkpt lat="44.23792" lon="5.07078">
        <ele>219.38407732688</ele>
        <time>2016-07-01T08:30:46Z</time>
      </trkpt>
      <trkpt lat="44.23782" lon="5.07086">
        <ele>220.16819708837</ele>
        <time>2016-07-01T08:30:50Z</time>
      </trkpt>
      <trkpt lat="44.23769" lon="5.07092">
        <ele>223.40278090901</ele>
        <time>2016-07-01T08:30:55Z</time>
      </trkpt>
      <trkpt lat="44.23755" lon="5.071">
        <ele>224.44141988097</ele>
        <time>2016-07-01T08:31:00Z</time>
      </trkpt>
      <trkpt lat="44.23746" lon="5.07115">
        <ele>225.31880717235</ele>
        <time>2016-07-01T08:31:05Z</time>
      </trkpt>
      <trkpt lat="44.23738" lon="5.07126">
        <ele>226.09738306311</ele>
        <time>2016-07-01T08:31:09Z</time>
      </trkpt>
      <trkpt lat="44.23727" lon="5.07141">
        <ele>227.26096143344</ele>
        <time>2016-07-01T08:31:14Z</time>
      </trkpt>
      <trkpt lat="44.23716" lon="5.07151">
        <ele>228.78856081518</ele>
        <time>2016-07-01T08:31:19Z</time>
      </trkpt>
      <trkpt lat="44.23704" lon="5.07165">
        <ele>230.2135064825</ele>
        <time>2016-07-01T08:31:24Z</time>
      </trkpt>
      <trkpt lat="44.23696" lon="5.07175">
        <ele>231.40112318197</ele>
        <time>2016-07-01T08:31:28Z</time>
      </trkpt>
      <trkpt lat="44.23683" lon="5.07188">
        <ele>233.11660672917</ele>
        <time>2016-07-01T08:31:33Z</time>
      </trkpt>
      <trkpt lat="44.23674" lon="5.07201">
        <ele>234.27264449044</ele>
        <time>2016-07-01T08:31:37Z</time>
      </trkpt>
      <trkpt lat="44.23666" lon="5.07224">
        <ele>235.4855065374</ele>
        <time>2016-07-01T08:31:42Z</time>
      </trkpt>
      <trkpt lat="44.23661" lon="5.0724">
        <ele>236.32331026799</ele>
        <time>2016-07-01T08:31:46Z</time>
      </trkpt>
      <trkpt lat="44.23655" lon="5.07256">
        <ele>237.09397104448</ele>
        <time>2016-07-01T08:31:50Z</time>
      </trkpt>
      <trkpt lat="44.23649" lon="5.07272">
        <ele>237.86900381767</ele>
        <time>2016-07-01T08:31:54Z</time>
      </trkpt>
      <trkpt lat="44.23641" lon="5.07291">
        <ele>238.98956217438</ele>
        <time>2016-07-01T08:31:59Z</time>
      </trkpt>
      <trkpt lat="44.23629" lon="5.07301">
        <ele>240.04122009098</ele>
        <time>2016-07-01T08:32:03Z</time>
      </trkpt>
      <trkpt lat="44.23612" lon="5.07307">
        <ele>241.58126295496</ele>
        <time>2016-07-01T08:32:08Z</time>
      </trkpt>
      <trkpt lat="44.23596" lon="5.07313">
        <ele>243.07765663621</ele>
        <time>2016-07-01T08:32:13Z</time>
      </trkpt>
      <trkpt lat="44.23584" lon="5.07315">
        <ele>243.99843552204</ele>
        <time>2016-07-01T08:32:17Z</time>
      </trkpt>
      <trkpt lat="44.23572" lon="5.07319">
        <ele>244.69280521108</ele>
        <time>2016-07-01T08:32:21Z</time>
      </trkpt>
      <trkpt lat="44.23559" lon="5.07321">
        <ele>245.52389791961</ele>
        <time>2016-07-01T08:32:26Z</time>
      </trkpt>
      <trkpt lat="44.23552" lon="5.07328">
        <ele>248.91008279812</ele>
        <time>2016-07-01T08:32:58Z</time>
      </trkpt>
      <trkpt lat="44.23548" lon="5.07338">
        <ele>250.2157569895</ele>
        <time>2016-07-01T08:33:03Z</time>
      </trkpt>
      <trkpt lat="44.23543" lon="5.07351">
        <ele>251.72451302889</ele>
        <time>2016-07-01T08:33:07Z</time>
      </trkpt>
      <trkpt lat="44.23536" lon="5.07375">
        <ele>252.69527765078</ele>
        <time>2016-07-01T08:33:11Z</time>
      </trkpt>
      <trkpt lat="44.23533" lon="5.07394">
        <ele>253.47935758222</ele>
        <time>2016-07-01T08:33:15Z</time>
      </trkpt>
      <trkpt lat="44.23535" lon="5.07417">
        <ele>254.5478511342</ele>
        <time>2016-07-01T08:33:20Z</time>
      </trkpt>
      <trkpt lat="44.2354" lon="5.07435">
        <ele>257.58347922814</ele>
        <time>2016-07-01T08:33:24Z</time>
      </trkpt>
      <trkpt lat="44.23549" lon="5.07455">
        <ele>259.97220157638</ele>
        <time>2016-07-01T08:33:29Z</time>
      </trkpt>
      <trkpt lat="44.23542" lon="5.07448">
        <ele>263.96084374846</ele>
        <time>2016-07-01T08:34:14Z</time>
      </trkpt>
      <trkpt lat="44.23543" lon="5.07436">
        <ele>265.00907133444</ele>
        <time>2016-07-01T08:34:46Z</time>
      </trkpt>
      <trkpt lat="44.23542" lon="5.07446">
        <ele>265.09065317506</ele>
        <time>2016-07-01T08:34:58Z</time>
      </trkpt>
      <trkpt lat="44.23545" lon="5.07455">
        <ele>265.47876875307</ele>
        <time>2016-07-01T08:35:02Z</time>
      </trkpt>
      <trkpt lat="44.23549" lon="5.07465">
        <ele>266.23240614969</ele>
        <time>2016-07-01T08:35:07Z</time>
      </trkpt>
      <trkpt lat="44.23553" lon="5.07472">
        <ele>266.19505405338</ele>
        <time>2016-07-01T08:36:13Z</time>
      </trkpt>
      <trkpt lat="44.2356" lon="5.07487">
        <ele>266.25556901923</ele>
        <time>2016-07-01T08:36:18Z</time>
      </trkpt>
      <trkpt lat="44.23567" lon="5.07493">
        <ele>266.33386375866</ele>
        <time>2016-07-01T08:36:23Z</time>
      </trkpt>
      <trkpt lat="44.23574" lon="5.07498">
        <ele>266.5189196231</ele>
        <time>2016-07-01T08:36:29Z</time>
      </trkpt>
      <trkpt lat="44.23579" lon="5.07506">
        <ele>267.20653110809</ele>
        <time>2016-07-01T08:36:36Z</time>
      </trkpt>
      <trkpt lat="44.23583" lon="5.07519">
        <ele>267.86686004798</ele>
        <time>2016-07-01T08:36:41Z</time>
      </trkpt>
      <trkpt lat="44.23585" lon="5.07529">
        <ele>268.23076156873</ele>
        <time>2016-07-01T08:36:45Z</time>
      </trkpt>
      <trkpt lat="44.23588" lon="5.0754">
        <ele>268.5871400153</ele>
        <time>2016-07-01T08:36:50Z</time>
      </trkpt>
      <trkpt lat="44.23588" lon="5.07552">
        <ele>268.89229855914</ele>
        <time>2016-07-01T08:36:55Z</time>
      </trkpt>
      <trkpt lat="44.23588" lon="5.07563">
        <ele>269.25188174625</ele>
        <time>2016-07-01T08:37:00Z</time>
      </trkpt>
      <trkpt lat="44.23585" lon="5.07573">
        <ele>269.22983699331</ele>
        <time>2016-07-01T08:37:05Z</time>
      </trkpt>
      <trkpt lat="44.23578" lon="5.07586">
        <ele>269.16174708519</ele>
        <time>2016-07-01T08:37:10Z</time>
      </trkpt>
      <trkpt lat="44.23569" lon="5.07596">
        <ele>269.05014181781</ele>
        <time>2016-07-01T08:37:14Z</time>
      </trkpt>
      <trkpt lat="44.2356" lon="5.07607">
        <ele>269.19846900394</ele>
        <time>2016-07-01T08:37:18Z</time>
      </trkpt>
      <trkpt lat="44.23547" lon="5.0762">
        <ele>269.31966277223</ele>
        <time>2016-07-01T08:37:23Z</time>
      </trkpt>
      <trkpt lat="44.23531" lon="5.07629">
        <ele>269.51053666084</ele>
        <time>2016-07-01T08:37:28Z</time>
      </trkpt>
      <trkpt lat="44.23518" lon="5.07636">
        <ele>270.13343982403</ele>
        <time>2016-07-01T08:37:32Z</time>
      </trkpt>
      <trkpt lat="44.23505" lon="5.07641">
        <ele>270.87866376247</ele>
        <time>2016-07-01T08:37:36Z</time>
      </trkpt>
      <trkpt lat="44.23489" lon="5.07651">
        <ele>271.84371313324</ele>
        <time>2016-07-01T08:37:41Z</time>
      </trkpt>
      <trkpt lat="44.23478" lon="5.07659">
        <ele>272.4405040196</ele>
        <time>2016-07-01T08:37:45Z</time>
      </trkpt>
      <trkpt lat="44.23465" lon="5.0767">
        <ele>273.17189410118</ele>
        <time>2016-07-01T08:37:49Z</time>
      </trkpt>
      <trkpt lat="44.23452" lon="5.0768">
        <ele>273.4374123008</ele>
        <time>2016-07-01T08:37:53Z</time>
      </trkpt>
      <trkpt lat="44.23438" lon="5.07691">
        <ele>273.69553265767</ele>
        <time>2016-07-01T08:37:58Z</time>
      </trkpt>
      <trkpt lat="44.23427" lon="5.07701">
        <ele>273.83330163769</ele>
        <time>2016-07-01T08:38:02Z</time>
      </trkpt>
      <trkpt lat="44.23413" lon="5.07711">
        <ele>273.74434633774</ele>
        <time>2016-07-01T08:38:06Z</time>
      </trkpt>
      <trkpt lat="44.234" lon="5.07718">
        <ele>273.92979964231</ele>
        <time>2016-07-01T08:38:10Z</time>
      </trkpt>
      <trkpt lat="44.23384" lon="5.07721">
        <ele>274.03398895962</ele>
        <time>2016-07-01T08:38:15Z</time>
      </trkpt>
      <trkpt lat="44.2337" lon="5.07722">
        <ele>274.55503179533</ele>
        <time>2016-07-01T08:38:20Z</time>
      </trkpt>
      <trkpt lat="44.23358" lon="5.07722">
        <ele>274.85442089129</ele>
        <time>2016-07-01T08:38:24Z</time>
      </trkpt>
      <trkpt lat="44.23341" lon="5.07723">
        <ele>275.36548492837</ele>
        <time>2016-07-01T08:38:29Z</time>
      </trkpt>
      <trkpt lat="44.23324" lon="5.07722">
        <ele>275.72360454394</ele>
        <time>2016-07-01T08:38:34Z</time>
      </trkpt>
      <trkpt lat="44.23307" lon="5.07723">
        <ele>275.90495592071</ele>
        <time>2016-07-01T08:38:39Z</time>
      </trkpt>
      <trkpt lat="44.23294" lon="5.07723">
        <ele>276.06502537558</ele>
        <time>2016-07-01T08:38:43Z</time>
      </trkpt>
      <trkpt lat="44.23283" lon="5.07724">
        <ele>276.0511342893</ele>
        <time>2016-07-01T08:38:47Z</time>
      </trkpt>
      <trkpt lat="44.23265" lon="5.07728">
        <ele>276.02867896099</ele>
        <time>2016-07-01T08:38:52Z</time>
      </trkpt>
      <trkpt lat="44.23247" lon="5.0773">
        <ele>276.3841962509</ele>
        <time>2016-07-01T08:38:57Z</time>
      </trkpt>
      <trkpt lat="44.23232" lon="5.07735">
        <ele>277.58354113495</ele>
        <time>2016-07-01T08:39:01Z</time>
      </trkpt>
      <trkpt lat="44.23219" lon="5.07739">
        <ele>277.69158930034</ele>
        <time>2016-07-01T08:39:05Z</time>
      </trkpt>
      <trkpt lat="44.23205" lon="5.0774">
        <ele>277.62258314318</ele>
        <time>2016-07-01T08:39:09Z</time>
      </trkpt>
      <trkpt lat="44.23192" lon="5.07739">
        <ele>277.56446892921</ele>
        <time>2016-07-01T08:39:13Z</time>
      </trkpt>
      <trkpt lat="44.23175" lon="5.07732">
        <ele>277.86319304917</ele>
        <time>2016-07-01T08:39:18Z</time>
      </trkpt>
      <trkpt lat="44.23161" lon="5.07725">
        <ele>277.98945400782</ele>
        <time>2016-07-01T08:39:22Z</time>
      </trkpt>
      <trkpt lat="44.23145" lon="5.07728">
        <ele>278.39680320931</ele>
        <time>2016-07-01T08:39:27Z</time>
      </trkpt>
      <trkpt lat="44.23133" lon="5.07737">
        <ele>278.65085343964</ele>
        <time>2016-07-01T08:39:31Z</time>
      </trkpt>
      <trkpt lat="44.23119" lon="5.07747">
        <ele>278.74518904578</ele>
        <time>2016-07-01T08:39:35Z</time>
      </trkpt>
      <trkpt lat="44.23104" lon="5.07753">
        <ele>280.73573202548</ele>
        <time>2016-07-01T08:39:39Z</time>
      </trkpt>
      <trkpt lat="44.23092" lon="5.07756">
        <ele>281.05025028419</ele>
        <time>2016-07-01T08:39:43Z</time>
      </trkpt>
      <trkpt lat="44.23076" lon="5.07757">
        <ele>281.29388671302</ele>
        <time>2016-07-01T08:39:48Z</time>
      </trkpt>
      <trkpt lat="44.23058" lon="5.07759">
        <ele>282.55967908765</ele>
        <time>2016-07-01T08:39:53Z</time>
      </trkpt>
      <trkpt lat="44.23041" lon="5.07761">
        <ele>285.06111129066</ele>
        <time>2016-07-01T08:39:57Z</time>
      </trkpt>
      <trkpt lat="44.23027" lon="5.07763">
        <ele>285.68413507769</ele>
        <time>2016-07-01T08:40:01Z</time>
      </trkpt>
      <trkpt lat="44.23009" lon="5.07765">
        <ele>285.77321523684</ele>
        <time>2016-07-01T08:40:06Z</time>
      </trkpt>
      <trkpt lat="44.22994" lon="5.07765">
        <ele>285.68453740554</ele>
        <time>2016-07-01T08:40:10Z</time>
      </trkpt>
      <trkpt lat="44.22976" lon="5.07762">
        <ele>285.93395293632</ele>
        <time>2016-07-01T08:40:15Z</time>
      </trkpt>
      <trkpt lat="44.22964" lon="5.07759">
        <ele>286.34265947237</ele>
        <time>2016-07-01T08:40:19Z</time>
      </trkpt>
      <trkpt lat="44.22947" lon="5.07753">
        <ele>288.91090318886</ele>
        <time>2016-07-01T08:40:24Z</time>
      </trkpt>
      <trkpt lat="44.22933" lon="5.07749">
        <ele>289.92046720207</ele>
        <time>2016-07-01T08:40:28Z</time>
      </trkpt>
      <trkpt lat="44.22913" lon="5.07745">
        <ele>291.35458859656</ele>
        <time>2016-07-01T08:40:33Z</time>
      </trkpt>
      <trkpt lat="44.22899" lon="5.0774">
        <ele>291.94944948248</ele>
        <time>2016-07-01T08:40:37Z</time>
      </trkpt>
      <trkpt lat="44.22885" lon="5.07737">
        <ele>291.96334699196</ele>
        <time>2016-07-01T08:40:41Z</time>
      </trkpt>
      <trkpt lat="44.22868" lon="5.07731">
        <ele>292.01520005821</ele>
        <time>2016-07-01T08:40:46Z</time>
      </trkpt>
      <trkpt lat="44.22855" lon="5.07716">
        <ele>292.27703560403</ele>
        <time>2016-07-01T08:40:51Z</time>
      </trkpt>
      <trkpt lat="44.2285" lon="5.07696">
        <ele>292.38184503373</ele>
        <time>2016-07-01T08:40:55Z</time>
      </trkpt>
      <trkpt lat="44.22839" lon="5.07679">
        <ele>292.28846258381</ele>
        <time>2016-07-01T08:40:59Z</time>
      </trkpt>
      <trkpt lat="44.22825" lon="5.07671">
        <ele>289.86790377176</ele>
        <time>2016-07-01T08:41:03Z</time>
      </trkpt>
      <trkpt lat="44.22809" lon="5.07665">
        <ele>290.70332226865</ele>
        <time>2016-07-01T08:41:08Z</time>
      </trkpt>
      <trkpt lat="44.22797" lon="5.07663">
        <ele>290.94185285849</ele>
        <time>2016-07-01T08:41:12Z</time>
      </trkpt>
      <trkpt lat="44.22783" lon="5.07657">
        <ele>293.95830657802</ele>
        <time>2016-07-01T08:41:16Z</time>
      </trkpt>
      <trkpt lat="44.22768" lon="5.07652">
        <ele>295.03616490822</ele>
        <time>2016-07-01T08:41:20Z</time>
      </trkpt>
      <trkpt lat="44.22752" lon="5.07648">
        <ele>295.14527884904</ele>
        <time>2016-07-01T08:41:24Z</time>
      </trkpt>
      <trkpt lat="44.22734" lon="5.07642">
        <ele>295.34239332021</ele>
        <time>2016-07-01T08:41:29Z</time>
      </trkpt>
      <trkpt lat="44.22721" lon="5.07638">
        <ele>295.32207674763</ele>
        <time>2016-07-01T08:41:33Z</time>
      </trkpt>
      <trkpt lat="44.22705" lon="5.07632">
        <ele>295.15793592319</ele>
        <time>2016-07-01T08:41:38Z</time>
      </trkpt>
      <trkpt lat="44.22685" lon="5.07625">
        <ele>294.95469825749</ele>
        <time>2016-07-01T08:41:43Z</time>
      </trkpt>
      <trkpt lat="44.22674" lon="5.07619">
        <ele>294.74546783391</ele>
        <time>2016-07-01T08:41:47Z</time>
      </trkpt>
      <trkpt lat="44.22661" lon="5.07612">
        <ele>295.02473570204</ele>
        <time>2016-07-01T08:41:52Z</time>
      </trkpt>
      <trkpt lat="44.22647" lon="5.07602">
        <ele>295.17471961585</ele>
        <time>2016-07-01T08:41:57Z</time>
      </trkpt>
      <trkpt lat="44.22637" lon="5.07593">
        <ele>295.62723046792</ele>
        <time>2016-07-01T08:42:01Z</time>
      </trkpt>
      <trkpt lat="44.22623" lon="5.0758">
        <ele>296.16976703336</ele>
        <time>2016-07-01T08:42:05Z</time>
      </trkpt>
      <trkpt lat="44.22612" lon="5.07564">
        <ele>297.0175224758</ele>
        <time>2016-07-01T08:42:10Z</time>
      </trkpt>
      <trkpt lat="44.2261" lon="5.07541">
        <ele>297.75017161656</ele>
        <time>2016-07-01T08:42:15Z</time>
      </trkpt>
      <trkpt lat="44.2262" lon="5.07533">
        <ele>299.9629105778</ele>
        <time>2016-07-01T08:42:19Z</time>
      </trkpt>
      <trkpt lat="44.22637" lon="5.07522">
        <ele>300.9125613871</ele>
        <time>2016-07-01T08:42:24Z</time>
      </trkpt>
      <trkpt lat="44.22651" lon="5.07514">
        <ele>301.18658558871</ele>
        <time>2016-07-01T08:42:28Z</time>
      </trkpt>
      <trkpt lat="44.22666" lon="5.07506">
        <ele>303.33697774695</ele>
        <time>2016-07-01T08:42:32Z</time>
      </trkpt>
      <trkpt lat="44.22686" lon="5.07495">
        <ele>305.93701532935</ele>
        <time>2016-07-01T08:42:37Z</time>
      </trkpt>
      <trkpt lat="44.227" lon="5.07487">
        <ele>305.91529224811</ele>
        <time>2016-07-01T08:42:41Z</time>
      </trkpt>
      <trkpt lat="44.22715" lon="5.07462">
        <ele>304.92398719755</ele>
        <time>2016-07-01T08:42:46Z</time>
      </trkpt>
      <trkpt lat="44.22722" lon="5.07432">
        <ele>305.34984979505</ele>
        <time>2016-07-01T08:42:51Z</time>
      </trkpt>
      <trkpt lat="44.22721" lon="5.07409">
        <ele>306.14183288068</ele>
        <time>2016-07-01T08:42:55Z</time>
      </trkpt>
      <trkpt lat="44.22709" lon="5.07393">
        <ele>306.27013865185</ele>
        <time>2016-07-01T08:42:59Z</time>
      </trkpt>
      <trkpt lat="44.22689" lon="5.07384">
        <ele>308.73257679371</ele>
        <time>2016-07-01T08:43:04Z</time>
      </trkpt>
      <trkpt lat="44.22666" lon="5.07376">
        <ele>310.96717706509</ele>
        <time>2016-07-01T08:43:09Z</time>
      </trkpt>
      <trkpt lat="44.22646" lon="5.07372">
        <ele>309.81293145812</ele>
        <time>2016-07-01T08:43:14Z</time>
      </trkpt>
      <trkpt lat="44.22629" lon="5.07365">
        <ele>308.04385825296</ele>
        <time>2016-07-01T08:43:18Z</time>
      </trkpt>
      <trkpt lat="44.22606" lon="5.07352">
        <ele>307.5123595779</ele>
        <time>2016-07-01T08:43:23Z</time>
      </trkpt>
      <trkpt lat="44.22589" lon="5.07348">
        <ele>306.81761992088</ele>
        <time>2016-07-01T08:43:27Z</time>
      </trkpt>
      <trkpt lat="44.22571" lon="5.07348">
        <ele>308.51462272463</ele>
        <time>2016-07-01T08:43:31Z</time>
      </trkpt>
      <trkpt lat="44.22548" lon="5.07344">
        <ele>308.50887070187</ele>
        <time>2016-07-01T08:43:36Z</time>
      </trkpt>
      <trkpt lat="44.2253" lon="5.07339">
        <ele>307.23559373663</ele>
        <time>2016-07-01T08:43:41Z</time>
      </trkpt>
      <trkpt lat="44.22515" lon="5.07334">
        <ele>307.17215717991</ele>
        <time>2016-07-01T08:43:45Z</time>
      </trkpt>
      <trkpt lat="44.22495" lon="5.07328">
        <ele>309.4968105699</ele>
        <time>2016-07-01T08:43:50Z</time>
      </trkpt>
      <trkpt lat="44.22475" lon="5.07321">
        <ele>309.66654713055</ele>
        <time>2016-07-01T08:43:55Z</time>
      </trkpt>
      <trkpt lat="44.22459" lon="5.07316">
        <ele>308.58751088719</ele>
        <time>2016-07-01T08:43:59Z</time>
      </trkpt>
      <trkpt lat="44.22439" lon="5.07311">
        <ele>308.66349802382</ele>
        <time>2016-07-01T08:44:04Z</time>
      </trkpt>
      <trkpt lat="44.22418" lon="5.07306">
        <ele>310.46261280211</ele>
        <time>2016-07-01T08:44:09Z</time>
      </trkpt>
      <trkpt lat="44.22399" lon="5.073">
        <ele>309.24352440498</ele>
        <time>2016-07-01T08:44:14Z</time>
      </trkpt>
      <trkpt lat="44.22382" lon="5.07294">
        <ele>308.50169243863</ele>
        <time>2016-07-01T08:44:18Z</time>
      </trkpt>
      <trkpt lat="44.22371" lon="5.07285">
        <ele>308.60690717518</ele>
        <time>2016-07-01T08:44:22Z</time>
      </trkpt>
      <trkpt lat="44.22354" lon="5.07273">
        <ele>308.61694382083</ele>
        <time>2016-07-01T08:44:27Z</time>
      </trkpt>
      <trkpt lat="44.22341" lon="5.07264">
        <ele>309.24572250355</ele>
        <time>2016-07-01T08:44:31Z</time>
      </trkpt>
      <trkpt lat="44.22324" lon="5.07254">
        <ele>309.16065783221</ele>
        <time>2016-07-01T08:44:36Z</time>
      </trkpt>
      <trkpt lat="44.22312" lon="5.0725">
        <ele>309.21072424841</ele>
        <time>2016-07-01T08:44:40Z</time>
      </trkpt>
      <trkpt lat="44.22293" lon="5.07246">
        <ele>309.7631137341</ele>
        <time>2016-07-01T08:44:45Z</time>
      </trkpt>
      <trkpt lat="44.22277" lon="5.07242">
        <ele>309.89764169356</ele>
        <time>2016-07-01T08:44:50Z</time>
      </trkpt>
      <trkpt lat="44.22266" lon="5.07239">
        <ele>309.90536472461</ele>
        <time>2016-07-01T08:44:54Z</time>
      </trkpt>
      <trkpt lat="44.22249" lon="5.07237">
        <ele>310.06155179417</ele>
        <time>2016-07-01T08:44:59Z</time>
      </trkpt>
      <trkpt lat="44.22231" lon="5.07239">
        <ele>308.8793641968</ele>
        <time>2016-07-01T08:45:03Z</time>
      </trkpt>
      <trkpt lat="44.22216" lon="5.07238">
        <ele>308.67894849886</ele>
        <time>2016-07-01T08:45:07Z</time>
      </trkpt>
      <trkpt lat="44.22198" lon="5.07239">
        <ele>308.00484152125</ele>
        <time>2016-07-01T08:45:12Z</time>
      </trkpt>
      <trkpt lat="44.22187" lon="5.07253">
        <ele>307.99098062536</ele>
        <time>2016-07-01T08:45:17Z</time>
      </trkpt>
      <trkpt lat="44.22184" lon="5.07273">
        <ele>308.0848004963</ele>
        <time>2016-07-01T08:45:21Z</time>
      </trkpt>
      <trkpt lat="44.22195" lon="5.07292">
        <ele>307.3580935665</ele>
        <time>2016-07-01T08:45:25Z</time>
      </trkpt>
      <trkpt lat="44.22208" lon="5.07313">
        <ele>306.6666874801</ele>
        <time>2016-07-01T08:45:30Z</time>
      </trkpt>
      <trkpt lat="44.22218" lon="5.07328">
        <ele>307.28628152442</ele>
        <time>2016-07-01T08:45:34Z</time>
      </trkpt>
      <trkpt lat="44.22231" lon="5.07351">
        <ele>307.72308887794</ele>
        <time>2016-07-01T08:45:39Z</time>
      </trkpt>
      <trkpt lat="44.22236" lon="5.07376">
        <ele>311.48143126415</ele>
        <time>2016-07-01T08:45:44Z</time>
      </trkpt>
      <trkpt lat="44.22234" lon="5.07406">
        <ele>314.70382264985</ele>
        <time>2016-07-01T08:45:49Z</time>
      </trkpt>
      <trkpt lat="44.22232" lon="5.07428">
        <ele>314.86709033181</ele>
        <time>2016-07-01T08:45:53Z</time>
      </trkpt>
      <trkpt lat="44.22232" lon="5.0745">
        <ele>315.06184453724</ele>
        <time>2016-07-01T08:45:58Z</time>
      </trkpt>
      <trkpt lat="44.22232" lon="5.07467">
        <ele>315.42559613501</ele>
        <time>2016-07-01T08:46:03Z</time>
      </trkpt>
      <trkpt lat="44.22234" lon="5.07486">
        <ele>315.64609698027</ele>
        <time>2016-07-01T08:46:07Z</time>
      </trkpt>
      <trkpt lat="44.22238" lon="5.07502">
        <ele>315.84062044759</ele>
        <time>2016-07-01T08:46:11Z</time>
      </trkpt>
      <trkpt lat="44.22243" lon="5.07519">
        <ele>316.13915700569</ele>
        <time>2016-07-01T08:46:15Z</time>
      </trkpt>
      <trkpt lat="44.22251" lon="5.0754">
        <ele>316.49883259625</ele>
        <time>2016-07-01T08:46:19Z</time>
      </trkpt>
      <trkpt lat="44.22267" lon="5.07555">
        <ele>319.06410080232</ele>
        <time>2016-07-01T08:46:24Z</time>
      </trkpt>
      <trkpt lat="44.2228" lon="5.07565">
        <ele>319.21803853147</ele>
        <time>2016-07-01T08:46:28Z</time>
      </trkpt>
      <trkpt lat="44.22289" lon="5.07579">
        <ele>319.35622422651</ele>
        <time>2016-07-01T08:46:32Z</time>
      </trkpt>
      <trkpt lat="44.22295" lon="5.07596">
        <ele>319.04230461598</ele>
        <time>2016-07-01T08:46:36Z</time>
      </trkpt>
      <trkpt lat="44.22302" lon="5.07619">
        <ele>317.81089608125</ele>
        <time>2016-07-01T08:46:41Z</time>
      </trkpt>
      <trkpt lat="44.22303" lon="5.07641">
        <ele>317.66624548372</ele>
        <time>2016-07-01T08:46:45Z</time>
      </trkpt>
      <trkpt lat="44.22303" lon="5.07662">
        <ele>317.05331135101</ele>
        <time>2016-07-01T08:46:49Z</time>
      </trkpt>
      <trkpt lat="44.22308" lon="5.07692">
        <ele>318.01587876991</ele>
        <time>2016-07-01T08:46:54Z</time>
      </trkpt>
      <trkpt lat="44.22314" lon="5.0771">
        <ele>318.17297185078</ele>
        <time>2016-07-01T08:46:58Z</time>
      </trkpt>
      <trkpt lat="44.2232" lon="5.07731">
        <ele>318.2007216585</ele>
        <time>2016-07-01T08:47:03Z</time>
      </trkpt>
      <trkpt lat="44.22325" lon="5.07748">
        <ele>318.06406096027</ele>
        <time>2016-07-01T08:47:07Z</time>
      </trkpt>
      <trkpt lat="44.22334" lon="5.07766">
        <ele>318.17407903205</ele>
        <time>2016-07-01T08:47:11Z</time>
      </trkpt>
      <trkpt lat="44.22344" lon="5.07781">
        <ele>318.45299215495</ele>
        <time>2016-07-01T08:47:16Z</time>
      </trkpt>
      <trkpt lat="44.22353" lon="5.07793">
        <ele>318.67062328118</ele>
        <time>2016-07-01T08:47:20Z</time>
      </trkpt>
      <trkpt lat="44.2236" lon="5.0781">
        <ele>319.12741647297</ele>
        <time>2016-07-01T08:47:25Z</time>
      </trkpt>
      <trkpt lat="44.22367" lon="5.07828">
        <ele>319.65264092255</ele>
        <time>2016-07-01T08:47:29Z</time>
      </trkpt>
      <trkpt lat="44.22375" lon="5.0785">
        <ele>320.01242946346</ele>
        <time>2016-07-01T08:47:34Z</time>
      </trkpt>
      <trkpt lat="44.22381" lon="5.07868">
        <ele>320.80004639871</ele>
        <time>2016-07-01T08:47:38Z</time>
      </trkpt>
      <trkpt lat="44.22388" lon="5.07888">
        <ele>320.92933371318</ele>
        <time>2016-07-01T08:47:43Z</time>
      </trkpt>
      <trkpt lat="44.2239" lon="5.07909">
        <ele>321.01314901203</ele>
        <time>2016-07-01T08:47:47Z</time>
      </trkpt>
      <trkpt lat="44.22388" lon="5.07928">
        <ele>320.64718651704</ele>
        <time>2016-07-01T08:47:52Z</time>
      </trkpt>
      <trkpt lat="44.22382" lon="5.07934">
        <ele>319.9086825644</ele>
        <time>2016-07-01T08:47:58Z</time>
      </trkpt>
      <trkpt lat="44.22375" lon="5.07939">
        <ele>319.33940662114</ele>
        <time>2016-07-01T08:48:02Z</time>
      </trkpt>
      <trkpt lat="44.22366" lon="5.07941">
        <ele>318.8794788689</ele>
        <time>2016-07-01T08:48:07Z</time>
      </trkpt>
      <trkpt lat="44.22352" lon="5.07941">
        <ele>318.69997389756</ele>
        <time>2016-07-01T08:48:12Z</time>
      </trkpt>
      <trkpt lat="44.22339" lon="5.0794">
        <ele>318.76071640465</ele>
        <time>2016-07-01T08:48:16Z</time>
      </trkpt>
      <trkpt lat="44.22325" lon="5.07937">
        <ele>318.44287467737</ele>
        <time>2016-07-01T08:48:20Z</time>
      </trkpt>
      <trkpt lat="44.22309" lon="5.07936">
        <ele>318.47931198086</ele>
        <time>2016-07-01T08:48:25Z</time>
      </trkpt>
      <trkpt lat="44.22293" lon="5.07935">
        <ele>318.49489404159</ele>
        <time>2016-07-01T08:48:30Z</time>
      </trkpt>
      <trkpt lat="44.22281" lon="5.07933">
        <ele>318.2875067209</ele>
        <time>2016-07-01T08:48:34Z</time>
      </trkpt>
      <trkpt lat="44.22265" lon="5.07935">
        <ele>318.03361850527</ele>
        <time>2016-07-01T08:48:39Z</time>
      </trkpt>
      <trkpt lat="44.22249" lon="5.07936">
        <ele>318.04155583388</ele>
        <time>2016-07-01T08:48:43Z</time>
      </trkpt>
      <trkpt lat="44.22235" lon="5.07935">
        <ele>317.76619259556</ele>
        <time>2016-07-01T08:48:47Z</time>
      </trkpt>
      <trkpt lat="44.22218" lon="5.07933">
        <ele>317.41319612948</ele>
        <time>2016-07-01T08:48:51Z</time>
      </trkpt>
      <trkpt lat="44.22204" lon="5.0793">
        <ele>317.49959474118</ele>
        <time>2016-07-01T08:48:55Z</time>
      </trkpt>
      <trkpt lat="44.22188" lon="5.07925">
        <ele>317.24850694575</ele>
        <time>2016-07-01T08:49:00Z</time>
      </trkpt>
      <trkpt lat="44.2217" lon="5.07921">
        <ele>316.53407407638</ele>
        <time>2016-07-01T08:49:05Z</time>
      </trkpt>
      <trkpt lat="44.22157" lon="5.07916">
        <ele>316.45404497587</ele>
        <time>2016-07-01T08:49:09Z</time>
      </trkpt>
      <trkpt lat="44.2214" lon="5.07913">
        <ele>316.26117517425</ele>
        <time>2016-07-01T08:49:14Z</time>
      </trkpt>
      <trkpt lat="44.22125" lon="5.07912">
        <ele>315.74577493593</ele>
        <time>2016-07-01T08:49:19Z</time>
      </trkpt>
      <trkpt lat="44.22107" lon="5.07914">
        <ele>315.61401066945</ele>
        <time>2016-07-01T08:49:23Z</time>
      </trkpt>
      <trkpt lat="44.22093" lon="5.07919">
        <ele>315.83467091599</ele>
        <time>2016-07-01T08:49:28Z</time>
      </trkpt>
      <trkpt lat="44.22082" lon="5.07938">
        <ele>316.52549921511</ele>
        <time>2016-07-01T08:49:33Z</time>
      </trkpt>
      <trkpt lat="44.22079" lon="5.07953">
        <ele>316.6341929536</ele>
        <time>2016-07-01T08:49:37Z</time>
      </trkpt>
      <trkpt lat="44.22073" lon="5.07965">
        <ele>316.71741711211</ele>
        <time>2016-07-01T08:49:41Z</time>
      </trkpt>
      <trkpt lat="44.22062" lon="5.0797">
        <ele>316.63501315776</ele>
        <time>2016-07-01T08:49:45Z</time>
      </trkpt>
      <trkpt lat="44.22051" lon="5.07974">
        <ele>316.72547166238</ele>
        <time>2016-07-01T08:49:49Z</time>
      </trkpt>
      <trkpt lat="44.22041" lon="5.07979">
        <ele>316.83853045915</ele>
        <time>2016-07-01T08:49:53Z</time>
      </trkpt>
      <trkpt lat="44.22028" lon="5.07982">
        <ele>316.88537503908</ele>
        <time>2016-07-01T08:49:58Z</time>
      </trkpt>
      <trkpt lat="44.22013" lon="5.07984">
        <ele>316.63004627862</ele>
        <time>2016-07-01T08:50:02Z</time>
      </trkpt>
      <trkpt lat="44.21995" lon="5.07988">
        <ele>316.61468686805</ele>
        <time>2016-07-01T08:50:07Z</time>
      </trkpt>
      <trkpt lat="44.2198" lon="5.07992">
        <ele>316.93937909665</ele>
        <time>2016-07-01T08:50:11Z</time>
      </trkpt>
      <trkpt lat="44.21964" lon="5.07995">
        <ele>317.62492543992</ele>
        <time>2016-07-01T08:50:16Z</time>
      </trkpt>
      <trkpt lat="44.21949" lon="5.07997">
        <ele>319.31758347401</ele>
        <time>2016-07-01T08:50:20Z</time>
      </trkpt>
      <trkpt lat="44.21933" lon="5.08002">
        <ele>319.5294916244</ele>
        <time>2016-07-01T08:50:24Z</time>
      </trkpt>
      <trkpt lat="44.21919" lon="5.08009">
        <ele>319.76423819247</ele>
        <time>2016-07-01T08:50:29Z</time>
      </trkpt>
      <trkpt lat="44.2191" lon="5.08008">
        <ele>319.79586417677</ele>
        <time>2016-07-01T08:50:34Z</time>
      </trkpt>
      <trkpt lat="44.21899" lon="5.08005">
        <ele>319.68907672235</ele>
        <time>2016-07-01T08:50:38Z</time>
      </trkpt>
      <trkpt lat="44.21884" lon="5.08002">
        <ele>319.8230212836</ele>
        <time>2016-07-01T08:50:43Z</time>
      </trkpt>
      <trkpt lat="44.21872" lon="5.08">
        <ele>319.62501326342</ele>
        <time>2016-07-01T08:50:48Z</time>
      </trkpt>
      <trkpt lat="44.2186" lon="5.08008">
        <ele>319.53206708654</ele>
        <time>2016-07-01T08:50:52Z</time>
      </trkpt>
      <trkpt lat="44.21852" lon="5.08014">
        <ele>319.28218352399</ele>
        <time>2016-07-01T08:50:57Z</time>
      </trkpt>
      <trkpt lat="44.2184" lon="5.08013">
        <ele>319.4660972413</ele>
        <time>2016-07-01T08:51:02Z</time>
      </trkpt>
      <trkpt lat="44.21828" lon="5.07998">
        <ele>319.38515252637</ele>
        <time>2016-07-01T08:51:07Z</time>
      </trkpt>
      <trkpt lat="44.21814" lon="5.07982">
        <ele>318.94611844859</ele>
        <time>2016-07-01T08:51:11Z</time>
      </trkpt>
      <trkpt lat="44.21803" lon="5.07973">
        <ele>319.29221443898</ele>
        <time>2016-07-01T08:51:15Z</time>
      </trkpt>
      <trkpt lat="44.2179" lon="5.07963">
        <ele>319.51520894178</ele>
        <time>2016-07-01T08:51:20Z</time>
      </trkpt>
      <trkpt lat="44.21771" lon="5.07959">
        <ele>320.48960733403</ele>
        <time>2016-07-01T08:51:25Z</time>
      </trkpt>
      <trkpt lat="44.21755" lon="5.07956">
        <ele>320.73085667687</ele>
        <time>2016-07-01T08:51:29Z</time>
      </trkpt>
      <trkpt lat="44.21742" lon="5.0795">
        <ele>321.32967097101</ele>
        <time>2016-07-01T08:51:34Z</time>
      </trkpt>
      <trkpt lat="44.21727" lon="5.07942">
        <ele>321.63597282341</ele>
        <time>2016-07-01T08:51:39Z</time>
      </trkpt>
      <trkpt lat="44.2172" lon="5.07948">
        <ele>321.50959148732</ele>
        <time>2016-07-01T08:51:43Z</time>
      </trkpt>
      <trkpt lat="44.21719" lon="5.07969">
        <ele>321.38532710029</ele>
        <time>2016-07-01T08:51:48Z</time>
      </trkpt>
      <trkpt lat="44.2172" lon="5.07988">
        <ele>321.51949714154</ele>
        <time>2016-07-01T08:51:52Z</time>
      </trkpt>
      <trkpt lat="44.21717" lon="5.08">
        <ele>321.21202242124</ele>
        <time>2016-07-01T08:51:57Z</time>
      </trkpt>
      <trkpt lat="44.21709" lon="5.07999">
        <ele>320.68412220238</ele>
        <time>2016-07-01T08:52:02Z</time>
      </trkpt>
      <trkpt lat="44.21697" lon="5.07995">
        <ele>320.50505143828</ele>
        <time>2016-07-01T08:52:07Z</time>
      </trkpt>
      <trkpt lat="44.21689" lon="5.0799">
        <ele>320.64172368972</ele>
        <time>2016-07-01T08:52:11Z</time>
      </trkpt>
      <trkpt lat="44.21677" lon="5.07981">
        <ele>320.84274623866</ele>
        <time>2016-07-01T08:52:16Z</time>
      </trkpt>
      <trkpt lat="44.21668" lon="5.07975">
        <ele>320.67380033005</ele>
        <time>2016-07-01T08:52:21Z</time>
      </trkpt>
      <trkpt lat="44.21661" lon="5.0797">
        <ele>320.8206018957</ele>
        <time>2016-07-01T08:52:25Z</time>
      </trkpt>
      <trkpt lat="44.21652" lon="5.07967">
        <ele>321.12043942064</ele>
        <time>2016-07-01T08:52:29Z</time>
      </trkpt>
      <trkpt lat="44.21643" lon="5.07967">
        <ele>321.11362011053</ele>
        <time>2016-07-01T08:52:35Z</time>
      </trkpt>
      <trkpt lat="44.21634" lon="5.07965">
        <ele>325.85944403214</ele>
        <time>2016-07-01T08:53:25Z</time>
      </trkpt>
      <trkpt lat="44.21633" lon="5.07953">
        <ele>333.33906815413</ele>
        <time>2016-07-01T08:54:29Z</time>
      </trkpt>
      <trkpt lat="44.21625" lon="5.07949">
        <ele>334.51110452441</ele>
        <time>2016-07-01T08:54:41Z</time>
      </trkpt>
      <trkpt lat="44.21624" lon="5.07937">
        <ele>335.7998432196</ele>
        <time>2016-07-01T08:56:05Z</time>
      </trkpt>
      <trkpt lat="44.21614" lon="5.07931">
        <ele>335.55263402063</ele>
        <time>2016-07-01T08:56:10Z</time>
      </trkpt>
      <trkpt lat="44.21605" lon="5.07926">
        <ele>335.20013866993</ele>
        <time>2016-07-01T08:56:14Z</time>
      </trkpt>
      <trkpt lat="44.21594" lon="5.07923">
        <ele>335.19467441035</ele>
        <time>2016-07-01T08:56:18Z</time>
      </trkpt>
      <trkpt lat="44.21584" lon="5.07922">
        <ele>335.21964295035</ele>
        <time>2016-07-01T08:56:22Z</time>
      </trkpt>
      <trkpt lat="44.21571" lon="5.07918">
        <ele>335.01380786888</ele>
        <time>2016-07-01T08:56:26Z</time>
      </trkpt>
      <trkpt lat="44.21554" lon="5.07914">
        <ele>334.57311102446</ele>
        <time>2016-07-01T08:56:31Z</time>
      </trkpt>
      <trkpt lat="44.21538" lon="5.07911">
        <ele>334.19945794324</ele>
        <time>2016-07-01T08:56:35Z</time>
      </trkpt>
      <trkpt lat="44.21521" lon="5.079">
        <ele>334.19858876747</ele>
        <time>2016-07-01T08:56:40Z</time>
      </trkpt>
      <trkpt lat="44.21513" lon="5.0789">
        <ele>334.08082683191</ele>
        <time>2016-07-01T08:56:44Z</time>
      </trkpt>
      <trkpt lat="44.21508" lon="5.0788">
        <ele>334.02069761624</ele>
        <time>2016-07-01T08:56:48Z</time>
      </trkpt>
      <trkpt lat="44.21499" lon="5.07866">
        <ele>334.21856292889</ele>
        <time>2016-07-01T08:56:53Z</time>
      </trkpt>
      <trkpt lat="44.21491" lon="5.07862">
        <ele>334.27390698401</ele>
        <time>2016-07-01T08:56:57Z</time>
      </trkpt>
      <trkpt lat="44.21481" lon="5.0786">
        <ele>334.43148788382</ele>
        <time>2016-07-01T08:57:01Z</time>
      </trkpt>
      <trkpt lat="44.21468" lon="5.07852">
        <ele>334.46952230654</ele>
        <time>2016-07-01T08:57:06Z</time>
      </trkpt>
      <trkpt lat="44.21456" lon="5.07847">
        <ele>334.7804359688</ele>
        <time>2016-07-01T08:57:10Z</time>
      </trkpt>
      <trkpt lat="44.21437" lon="5.07843">
        <ele>335.48262488991</ele>
        <time>2016-07-01T08:57:15Z</time>
      </trkpt>
      <trkpt lat="44.21424" lon="5.07843">
        <ele>336.15720086935</ele>
        <time>2016-07-01T08:57:19Z</time>
      </trkpt>
      <trkpt lat="44.21409" lon="5.07842">
        <ele>336.66725132081</ele>
        <time>2016-07-01T08:57:24Z</time>
      </trkpt>
      <trkpt lat="44.21394" lon="5.07838">
        <ele>337.13858044494</ele>
        <time>2016-07-01T08:57:28Z</time>
      </trkpt>
      <trkpt lat="44.21384" lon="5.07838">
        <ele>337.73993912214</ele>
        <time>2016-07-01T08:57:32Z</time>
      </trkpt>
      <trkpt lat="44.21371" lon="5.07842">
        <ele>338.495001596</ele>
        <time>2016-07-01T08:57:37Z</time>
      </trkpt>
      <trkpt lat="44.21362" lon="5.07841">
        <ele>339.01473766641</ele>
        <time>2016-07-01T08:57:41Z</time>
      </trkpt>
      <trkpt lat="44.21354" lon="5.0783">
        <ele>339.85889619694</ele>
        <time>2016-07-01T08:57:46Z</time>
      </trkpt>
      <trkpt lat="44.21342" lon="5.07828">
        <ele>340.38246209006</ele>
        <time>2016-07-01T08:57:51Z</time>
      </trkpt>
      <trkpt lat="44.21329" lon="5.07832">
        <ele>340.31553355334</ele>
        <time>2016-07-01T08:57:55Z</time>
      </trkpt>
      <trkpt lat="44.21328" lon="5.07843">
        <ele>339.62524837331</ele>
        <time>2016-07-01T08:58:01Z</time>
      </trkpt>
      <trkpt lat="44.21331" lon="5.0786">
        <ele>338.90332876409</ele>
        <time>2016-07-01T08:58:06Z</time>
      </trkpt>
      <trkpt lat="44.21334" lon="5.07875">
        <ele>338.60579633305</ele>
        <time>2016-07-01T08:58:10Z</time>
      </trkpt>
      <trkpt lat="44.21332" lon="5.07891">
        <ele>338.26282262048</ele>
        <time>2016-07-01T08:58:15Z</time>
      </trkpt>
      <trkpt lat="44.21328" lon="5.07901">
        <ele>337.706557916</ele>
        <time>2016-07-01T08:58:19Z</time>
      </trkpt>
      <trkpt lat="44.21328" lon="5.07925">
        <ele>337.55378920251</ele>
        <time>2016-07-01T08:58:24Z</time>
      </trkpt>
      <trkpt lat="44.21333" lon="5.07935">
        <ele>337.52007119385</ele>
        <time>2016-07-01T08:58:28Z</time>
      </trkpt>
      <trkpt lat="44.21345" lon="5.07942">
        <ele>337.54246262108</ele>
        <time>2016-07-01T08:58:33Z</time>
      </trkpt>
      <trkpt lat="44.21355" lon="5.07943">
        <ele>337.43783558187</ele>
        <time>2016-07-01T08:58:37Z</time>
      </trkpt>
      <trkpt lat="44.21368" lon="5.07945">
        <ele>337.23211202213</ele>
        <time>2016-07-01T08:58:42Z</time>
      </trkpt>
      <trkpt lat="44.21382" lon="5.07954">
        <ele>337.25300163311</ele>
        <time>2016-07-01T08:58:47Z</time>
      </trkpt>
      <trkpt lat="44.21391" lon="5.07961">
        <ele>337.38621152461</ele>
        <time>2016-07-01T08:58:51Z</time>
      </trkpt>
      <trkpt lat="44.21402" lon="5.07972">
        <ele>337.86632315627</ele>
        <time>2016-07-01T08:58:56Z</time>
      </trkpt>
      <trkpt lat="44.21409" lon="5.07983">
        <ele>338.33739640694</ele>
        <time>2016-07-01T08:59:00Z</time>
      </trkpt>
      <trkpt lat="44.21413" lon="5.07994">
        <ele>338.73805528889</ele>
        <time>2016-07-01T08:59:04Z</time>
      </trkpt>
      <trkpt lat="44.21417" lon="5.08004">
        <ele>343.8063575458</ele>
        <time>2016-07-01T08:59:30Z</time>
      </trkpt>
      <trkpt lat="44.21421" lon="5.08013">
        <ele>344.87656443537</ele>
        <time>2016-07-01T08:59:35Z</time>
      </trkpt>
      <trkpt lat="44.21424" lon="5.08021">
        <ele>347.00607628146</ele>
        <time>2016-07-01T08:59:39Z</time>
      </trkpt>
      <trkpt lat="44.21426" lon="5.08039">
        <ele>347.71521097424</ele>
        <time>2016-07-01T08:59:44Z</time>
      </trkpt>
      <trkpt lat="44.21419" lon="5.08054">
        <ele>348.07126929609</ele>
        <time>2016-07-01T08:59:49Z</time>
      </trkpt>
      <trkpt lat="44.21412" lon="5.08059">
        <ele>348.25101735914</ele>
        <time>2016-07-01T08:59:53Z</time>
      </trkpt>
      <trkpt lat="44.21404" lon="5.08061">
        <ele>348.92313850316</ele>
        <time>2016-07-01T08:59:57Z</time>
      </trkpt>
      <trkpt lat="44.21395" lon="5.08064">
        <ele>349.8595016462</ele>
        <time>2016-07-01T09:00:01Z</time>
      </trkpt>
      <trkpt lat="44.21389" lon="5.08069">
        <ele>353.71164619322</ele>
        <time>2016-07-01T09:00:27Z</time>
      </trkpt>
      <trkpt lat="44.21381" lon="5.08069">
        <ele>354.69900469778</ele>
        <time>2016-07-01T09:00:32Z</time>
      </trkpt>
      <trkpt lat="44.21373" lon="5.08075">
        <ele>355.45922869395</ele>
        <time>2016-07-01T09:00:37Z</time>
      </trkpt>
      <trkpt lat="44.21366" lon="5.0808">
        <ele>356.80593669736</ele>
        <time>2016-07-01T09:00:48Z</time>
      </trkpt>
      <trkpt lat="44.21358" lon="5.08083">
        <ele>357.0370771739</ele>
        <time>2016-07-01T09:00:52Z</time>
      </trkpt>
      <trkpt lat="44.21351" lon="5.08086">
        <ele>357.02152250124</ele>
        <time>2016-07-01T09:00:58Z</time>
      </trkpt>
      <trkpt lat="44.21344" lon="5.08092">
        <ele>356.89241658503</ele>
        <time>2016-07-01T09:01:02Z</time>
      </trkpt>
      <trkpt lat="44.21337" lon="5.081">
        <ele>356.7170551949</ele>
        <time>2016-07-01T09:01:07Z</time>
      </trkpt>
      <trkpt lat="44.21332" lon="5.08113">
        <ele>356.59745158345</ele>
        <time>2016-07-01T09:01:12Z</time>
      </trkpt>
      <trkpt lat="44.21331" lon="5.08137">
        <ele>356.146319459</ele>
        <time>2016-07-01T09:01:17Z</time>
      </trkpt>
      <trkpt lat="44.21333" lon="5.08153">
        <ele>355.63289595696</ele>
        <time>2016-07-01T09:01:21Z</time>
      </trkpt>
      <trkpt lat="44.21337" lon="5.08172">
        <ele>355.27164813008</ele>
        <time>2016-07-01T09:01:25Z</time>
      </trkpt>
      <trkpt lat="44.21341" lon="5.08191">
        <ele>354.81876129359</ele>
        <time>2016-07-01T09:01:29Z</time>
      </trkpt>
      <trkpt lat="44.21348" lon="5.08211">
        <ele>354.34697514937</ele>
        <time>2016-07-01T09:01:34Z</time>
      </trkpt>
      <trkpt lat="44.21353" lon="5.08223">
        <ele>354.13846791708</ele>
        <time>2016-07-01T09:01:38Z</time>
      </trkpt>
      <trkpt lat="44.21359" lon="5.08233">
        <ele>354.11982274844</ele>
        <time>2016-07-01T09:01:42Z</time>
      </trkpt>
      <trkpt lat="44.21366" lon="5.08246">
        <ele>354.07775504453</ele>
        <time>2016-07-01T09:01:46Z</time>
      </trkpt>
      <trkpt lat="44.21376" lon="5.08263">
        <ele>355.05717047916</ele>
        <time>2016-07-01T09:01:51Z</time>
      </trkpt>
      <trkpt lat="44.21388" lon="5.08278">
        <ele>354.90725312336</ele>
        <time>2016-07-01T09:01:55Z</time>
      </trkpt>
      <trkpt lat="44.214" lon="5.08286">
        <ele>355.129803282</ele>
        <time>2016-07-01T09:01:59Z</time>
      </trkpt>
      <trkpt lat="44.21416" lon="5.08294">
        <ele>355.7860792086</ele>
        <time>2016-07-01T09:02:04Z</time>
      </trkpt>
      <trkpt lat="44.21432" lon="5.083">
        <ele>356.75913372775</ele>
        <time>2016-07-01T09:02:09Z</time>
      </trkpt>
      <trkpt lat="44.21445" lon="5.08306">
        <ele>357.51985386153</ele>
        <time>2016-07-01T09:02:13Z</time>
      </trkpt>
      <trkpt lat="44.21457" lon="5.08309">
        <ele>358.27179175461</ele>
        <time>2016-07-01T09:02:18Z</time>
      </trkpt>
      <trkpt lat="44.21468" lon="5.08316">
        <ele>359.07108135169</ele>
        <time>2016-07-01T09:02:23Z</time>
      </trkpt>
      <trkpt lat="44.21475" lon="5.08323">
        <ele>359.70629555876</ele>
        <time>2016-07-01T09:02:27Z</time>
      </trkpt>
      <trkpt lat="44.21485" lon="5.08331">
        <ele>360.26203080565</ele>
        <time>2016-07-01T09:02:32Z</time>
      </trkpt>
      <trkpt lat="44.21501" lon="5.08338">
        <ele>361.18096901864</ele>
        <time>2016-07-01T09:02:37Z</time>
      </trkpt>
      <trkpt lat="44.21515" lon="5.0834">
        <ele>362.09432876178</ele>
        <time>2016-07-01T09:02:41Z</time>
      </trkpt>
      <trkpt lat="44.2153" lon="5.08344">
        <ele>363.40855710167</ele>
        <time>2016-07-01T09:02:46Z</time>
      </trkpt>
      <trkpt lat="44.2154" lon="5.08347">
        <ele>364.73104018357</ele>
        <time>2016-07-01T09:02:50Z</time>
      </trkpt>
      <trkpt lat="44.21547" lon="5.08346">
        <ele>367.03883934058</ele>
        <time>2016-07-01T09:03:02Z</time>
      </trkpt>
      <trkpt lat="44.21559" lon="5.08348">
        <ele>368.05100704099</ele>
        <time>2016-07-01T09:03:06Z</time>
      </trkpt>
      <trkpt lat="44.21574" lon="5.08347">
        <ele>372.09965272666</ele>
        <time>2016-07-01T09:03:10Z</time>
      </trkpt>
      <trkpt lat="44.21589" lon="5.08347">
        <ele>372.45514450366</ele>
        <time>2016-07-01T09:03:15Z</time>
      </trkpt>
      <trkpt lat="44.21612" lon="5.08342">
        <ele>372.5927576822</ele>
        <time>2016-07-01T09:03:20Z</time>
      </trkpt>
      <trkpt lat="44.21632" lon="5.08344">
        <ele>371.44428977521</ele>
        <time>2016-07-01T09:03:24Z</time>
      </trkpt>
      <trkpt lat="44.21647" lon="5.08345">
        <ele>370.99051799782</ele>
        <time>2016-07-01T09:03:28Z</time>
      </trkpt>
      <trkpt lat="44.21668" lon="5.08351">
        <ele>370.81771954913</ele>
        <time>2016-07-01T09:03:33Z</time>
      </trkpt>
      <trkpt lat="44.2168" lon="5.08353">
        <ele>371.13227978677</ele>
        <time>2016-07-01T09:03:37Z</time>
      </trkpt>
      <trkpt lat="44.21691" lon="5.08359">
        <ele>371.28909643205</ele>
        <time>2016-07-01T09:03:42Z</time>
      </trkpt>
      <trkpt lat="44.21696" lon="5.08368">
        <ele>371.51824289793</ele>
        <time>2016-07-01T09:03:49Z</time>
      </trkpt>
      <trkpt lat="44.21701" lon="5.08378">
        <ele>371.62535406828</ele>
        <time>2016-07-01T09:03:58Z</time>
      </trkpt>
      <trkpt lat="44.21709" lon="5.08374">
        <ele>371.75534945412</ele>
        <time>2016-07-01T09:04:05Z</time>
      </trkpt>
      <trkpt lat="44.21718" lon="5.08372">
        <ele>372.90334846885</ele>
        <time>2016-07-01T09:04:32Z</time>
      </trkpt>
      <trkpt lat="44.21715" lon="5.08363">
        <ele>373.22303769888</ele>
        <time>2016-07-01T09:04:38Z</time>
      </trkpt>
      <trkpt lat="44.21701" lon="5.08361">
        <ele>373.22739540123</ele>
        <time>2016-07-01T09:04:43Z</time>
      </trkpt>
      <trkpt lat="44.21688" lon="5.08352">
        <ele>372.91493316576</ele>
        <time>2016-07-01T09:04:48Z</time>
      </trkpt>
      <trkpt lat="44.21675" lon="5.08351">
        <ele>372.83089706416</ele>
        <time>2016-07-01T09:04:53Z</time>
      </trkpt>
      <trkpt lat="44.21665" lon="5.0835">
        <ele>372.57570377339</ele>
        <time>2016-07-01T09:04:57Z</time>
      </trkpt>
      <trkpt lat="44.21657" lon="5.08349">
        <ele>372.46077367278</ele>
        <time>2016-07-01T09:05:03Z</time>
      </trkpt>
      <trkpt lat="44.21649" lon="5.08345">
        <ele>372.52621136423</ele>
        <time>2016-07-01T09:05:07Z</time>
      </trkpt>
      <trkpt lat="44.21639" lon="5.08344">
        <ele>372.6181391394</ele>
        <time>2016-07-01T09:05:11Z</time>
      </trkpt>
      <trkpt lat="44.21624" lon="5.08345">
        <ele>372.49963786831</ele>
        <time>2016-07-01T09:05:16Z</time>
      </trkpt>
      <trkpt lat="44.21612" lon="5.08346">
        <ele>372.52558536668</ele>
        <time>2016-07-01T09:05:20Z</time>
      </trkpt>
      <trkpt lat="44.21599" lon="5.08348">
        <ele>372.59504400112</ele>
        <time>2016-07-01T09:05:24Z</time>
      </trkpt>
      <trkpt lat="44.21595" lon="5.08359">
        <ele>372.90788604027</ele>
        <time>2016-07-01T09:05:28Z</time>
      </trkpt>
      <trkpt lat="44.21593" lon="5.08372">
        <ele>373.08562191054</ele>
        <time>2016-07-01T09:05:32Z</time>
      </trkpt>
      <trkpt lat="44.2159" lon="5.08385">
        <ele>373.5592629705</ele>
        <time>2016-07-01T09:05:36Z</time>
      </trkpt>
      <trkpt lat="44.21578" lon="5.08394">
        <ele>373.80044149964</ele>
        <time>2016-07-01T09:05:40Z</time>
      </trkpt>
      <trkpt lat="44.21561" lon="5.08404">
        <ele>374.31490298678</ele>
        <time>2016-07-01T09:05:44Z</time>
      </trkpt>
      <trkpt lat="44.21541" lon="5.08419">
        <ele>372.7151802036</ele>
        <time>2016-07-01T09:05:49Z</time>
      </trkpt>
      <trkpt lat="44.21526" lon="5.0843">
        <ele>370.16060566908</ele>
        <time>2016-07-01T09:05:53Z</time>
      </trkpt>
      <trkpt lat="44.2151" lon="5.08443">
        <ele>368.27405736478</ele>
        <time>2016-07-01T09:05:57Z</time>
      </trkpt>
      <trkpt lat="44.2149" lon="5.08455">
        <ele>366.2244599404</ele>
        <time>2016-07-01T09:06:02Z</time>
      </trkpt>
      <trkpt lat="44.21471" lon="5.08466">
        <ele>366.13450837759</ele>
        <time>2016-07-01T09:06:06Z</time>
      </trkpt>
      <trkpt lat="44.21454" lon="5.08478">
        <ele>365.13757274073</ele>
        <time>2016-07-01T09:06:10Z</time>
      </trkpt>
      <trkpt lat="44.21442" lon="5.08485">
        <ele>365.15426421365</ele>
        <time>2016-07-01T09:06:14Z</time>
      </trkpt>
      <trkpt lat="44.21445" lon="5.08497">
        <ele>365.05963487346</ele>
        <time>2016-07-01T09:06:25Z</time>
      </trkpt>
      <trkpt lat="44.21463" lon="5.08492">
        <ele>362.97208415556</ele>
        <time>2016-07-01T09:06:30Z</time>
      </trkpt>
      <trkpt lat="44.21481" lon="5.08488">
        <ele>361.71690537836</ele>
        <time>2016-07-01T09:06:34Z</time>
      </trkpt>
      <trkpt lat="44.21501" lon="5.08483">
        <ele>360.79423603549</ele>
        <time>2016-07-01T09:06:38Z</time>
      </trkpt>
      <trkpt lat="44.21526" lon="5.08479">
        <ele>358.04430768061</ele>
        <time>2016-07-01T09:06:42Z</time>
      </trkpt>
      <trkpt lat="44.21545" lon="5.08476">
        <ele>357.35227596926</ele>
        <time>2016-07-01T09:06:46Z</time>
      </trkpt>
      <trkpt lat="44.21572" lon="5.08471">
        <ele>353.86495270259</ele>
        <time>2016-07-01T09:06:51Z</time>
      </trkpt>
      <trkpt lat="44.21593" lon="5.08467">
        <ele>348.33598393684</ele>
        <time>2016-07-01T09:06:55Z</time>
      </trkpt>
      <trkpt lat="44.21616" lon="5.08465">
        <ele>344.67336567588</ele>
        <time>2016-07-01T09:07:00Z</time>
      </trkpt>
      <trkpt lat="44.21634" lon="5.08461">
        <ele>344.30526783177</ele>
        <time>2016-07-01T09:07:05Z</time>
      </trkpt>
      <trkpt lat="44.21631" lon="5.08469">
        <ele>343.64040309494</ele>
        <time>2016-07-01T09:07:11Z</time>
      </trkpt>
      <trkpt lat="44.2161" lon="5.08486">
        <ele>340.66357803869</ele>
        <time>2016-07-01T09:07:16Z</time>
      </trkpt>
      <trkpt lat="44.2159" lon="5.08498">
        <ele>337.63189037447</ele>
        <time>2016-07-01T09:07:20Z</time>
      </trkpt>
      <trkpt lat="44.21567" lon="5.08515">
        <ele>334.62007727815</ele>
        <time>2016-07-01T09:07:25Z</time>
      </trkpt>
      <trkpt lat="44.21542" lon="5.08535">
        <ele>332.7498327228</ele>
        <time>2016-07-01T09:07:30Z</time>
      </trkpt>
      <trkpt lat="44.21523" lon="5.08552">
        <ele>330.96983190226</ele>
        <time>2016-07-01T09:07:34Z</time>
      </trkpt>
      <trkpt lat="44.21505" lon="5.08566">
        <ele>329.23258346339</ele>
        <time>2016-07-01T09:07:38Z</time>
      </trkpt>
      <trkpt lat="44.21486" lon="5.08577">
        <ele>327.24931344899</ele>
        <time>2016-07-01T09:07:43Z</time>
      </trkpt>
      <trkpt lat="44.21494" lon="5.08588">
        <ele>324.96136257572</ele>
        <time>2016-07-01T09:07:48Z</time>
      </trkpt>
      <trkpt lat="44.21509" lon="5.08585">
        <ele>321.75891660404</ele>
        <time>2016-07-01T09:07:52Z</time>
      </trkpt>
      <trkpt lat="44.21531" lon="5.08576">
        <ele>320.04814716893</ele>
        <time>2016-07-01T09:07:57Z</time>
      </trkpt>
      <trkpt lat="44.21545" lon="5.08573">
        <ele>319.91976251284</ele>
        <time>2016-07-01T09:08:01Z</time>
      </trkpt>
      <trkpt lat="44.21545" lon="5.08584">
        <ele>319.9508222686</ele>
        <time>2016-07-01T09:08:05Z</time>
      </trkpt>
      <trkpt lat="44.21533" lon="5.08593">
        <ele>318.97974759978</ele>
        <time>2016-07-01T09:08:09Z</time>
      </trkpt>
      <trkpt lat="44.21511" lon="5.08606">
        <ele>317.77372226712</ele>
        <time>2016-07-01T09:08:14Z</time>
      </trkpt>
      <trkpt lat="44.21489" lon="5.08624">
        <ele>316.56684352608</ele>
        <time>2016-07-01T09:08:19Z</time>
      </trkpt>
      <trkpt lat="44.21473" lon="5.0864">
        <ele>316.40793241708</ele>
        <time>2016-07-01T09:08:23Z</time>
      </trkpt>
      <trkpt lat="44.21454" lon="5.08657">
        <ele>315.36488833325</ele>
        <time>2016-07-01T09:08:27Z</time>
      </trkpt>
      <trkpt lat="44.21431" lon="5.08681">
        <ele>315.27542718301</ele>
        <time>2016-07-01T09:08:32Z</time>
      </trkpt>
      <trkpt lat="44.2141" lon="5.08711">
        <ele>312.97326477909</ele>
        <time>2016-07-01T09:08:37Z</time>
      </trkpt>
      <trkpt lat="44.21395" lon="5.08736">
        <ele>311.34141276177</ele>
        <time>2016-07-01T09:08:41Z</time>
      </trkpt>
      <trkpt lat="44.21377" lon="5.08772">
        <ele>310.61040312589</ele>
        <time>2016-07-01T09:08:46Z</time>
      </trkpt>
      <trkpt lat="44.21364" lon="5.08801">
        <ele>311.29224069925</ele>
        <time>2016-07-01T09:08:50Z</time>
      </trkpt>
      <trkpt lat="44.21349" lon="5.0883">
        <ele>307.09371425769</ele>
        <time>2016-07-01T09:08:54Z</time>
      </trkpt>
      <trkpt lat="44.21334" lon="5.08859">
        <ele>303.5759975557</ele>
        <time>2016-07-01T09:08:58Z</time>
      </trkpt>
      <trkpt lat="44.21315" lon="5.08878">
        <ele>301.68937476836</ele>
        <time>2016-07-01T09:09:02Z</time>
      </trkpt>
      <trkpt lat="44.21284" lon="5.08896">
        <ele>299.85346699459</ele>
        <time>2016-07-01T09:09:06Z</time>
      </trkpt>
      <trkpt lat="44.21248" lon="5.08915">
        <ele>296.08664435086</ele>
        <time>2016-07-01T09:09:11Z</time>
      </trkpt>
      <trkpt lat="44.21225" lon="5.08939">
        <ele>292.9752184906</ele>
        <time>2016-07-01T09:09:15Z</time>
      </trkpt>
      <trkpt lat="44.21224" lon="5.08975">
        <ele>290.76935179831</ele>
        <time>2016-07-01T09:09:19Z</time>
      </trkpt>
      <trkpt lat="44.2124" lon="5.0901">
        <ele>290.21335859852</ele>
        <time>2016-07-01T09:09:24Z</time>
      </trkpt>
      <trkpt lat="44.21253" lon="5.09033">
        <ele>290.18418487827</ele>
        <time>2016-07-01T09:09:28Z</time>
      </trkpt>
      <trkpt lat="44.21265" lon="5.09056">
        <ele>289.30400384199</ele>
        <time>2016-07-01T09:09:32Z</time>
      </trkpt>
      <trkpt lat="44.21292" lon="5.09087">
        <ele>288.81574396671</ele>
        <time>2016-07-01T09:09:37Z</time>
      </trkpt>
      <trkpt lat="44.21321" lon="5.09097">
        <ele>289.30512245328</ele>
        <time>2016-07-01T09:09:41Z</time>
      </trkpt>
      <trkpt lat="44.21354" lon="5.09105">
        <ele>289.74406581224</ele>
        <time>2016-07-01T09:09:46Z</time>
      </trkpt>
      <trkpt lat="44.21381" lon="5.09115">
        <ele>287.62003499668</ele>
        <time>2016-07-01T09:09:50Z</time>
      </trkpt>
      <trkpt lat="44.2141" lon="5.09134">
        <ele>283.97653811507</ele>
        <time>2016-07-01T09:09:55Z</time>
      </trkpt>
      <trkpt lat="44.21423" lon="5.09164">
        <ele>279.95128114171</ele>
        <time>2016-07-01T09:09:59Z</time>
      </trkpt>
      <trkpt lat="44.21413" lon="5.0919">
        <ele>277.02229852057</ele>
        <time>2016-07-01T09:10:03Z</time>
      </trkpt>
      <trkpt lat="44.21387" lon="5.09218">
        <ele>272.5742267999</ele>
        <time>2016-07-01T09:10:08Z</time>
      </trkpt>
      <trkpt lat="44.21363" lon="5.09241">
        <ele>268.99918971515</ele>
        <time>2016-07-01T09:10:12Z</time>
      </trkpt>
      <trkpt lat="44.21339" lon="5.09261">
        <ele>267.10738266656</ele>
        <time>2016-07-01T09:10:16Z</time>
      </trkpt>
      <trkpt lat="44.21304" lon="5.09285">
        <ele>264.84119606931</ele>
        <time>2016-07-01T09:10:21Z</time>
      </trkpt>
      <trkpt lat="44.21269" lon="5.09311">
        <ele>263.15721446316</ele>
        <time>2016-07-01T09:10:26Z</time>
      </trkpt>
      <trkpt lat="44.21242" lon="5.09336">
        <ele>261.82657444094</ele>
        <time>2016-07-01T09:10:30Z</time>
      </trkpt>
      <trkpt lat="44.21212" lon="5.09375">
        <ele>259.84484448966</ele>
        <time>2016-07-01T09:10:35Z</time>
      </trkpt>
      <trkpt lat="44.21199" lon="5.09415">
        <ele>258.29831138373</ele>
        <time>2016-07-01T09:10:39Z</time>
      </trkpt>
      <trkpt lat="44.212" lon="5.09458">
        <ele>257.41765128815</ele>
        <time>2016-07-01T09:10:43Z</time>
      </trkpt>
      <trkpt lat="44.212" lon="5.09511">
        <ele>257.38982370178</ele>
        <time>2016-07-01T09:10:48Z</time>
      </trkpt>
      <trkpt lat="44.21196" lon="5.0956">
        <ele>257.72165802347</ele>
        <time>2016-07-01T09:10:52Z</time>
      </trkpt>
      <trkpt lat="44.21189" lon="5.09619">
        <ele>255.06443747609</ele>
        <time>2016-07-01T09:10:57Z</time>
      </trkpt>
      <trkpt lat="44.21189" lon="5.0968">
        <ele>253.80354544971</ele>
        <time>2016-07-01T09:11:02Z</time>
      </trkpt>
      <trkpt lat="44.21196" lon="5.09726">
        <ele>252.11720009973</ele>
        <time>2016-07-01T09:11:06Z</time>
      </trkpt>
      <trkpt lat="44.21206" lon="5.09769">
        <ele>250.39721993256</ele>
        <time>2016-07-01T09:11:10Z</time>
      </trkpt>
      <trkpt lat="44.21215" lon="5.09812">
        <ele>248.17333272138</ele>
        <time>2016-07-01T09:11:14Z</time>
      </trkpt>
      <trkpt lat="44.21223" lon="5.09854">
        <ele>246.78413281236</ele>
        <time>2016-07-01T09:11:18Z</time>
      </trkpt>
      <trkpt lat="44.21233" lon="5.09907">
        <ele>245.8681045508</ele>
        <time>2016-07-01T09:11:23Z</time>
      </trkpt>
      <trkpt lat="44.21243" lon="5.09949">
        <ele>245.05968238304</ele>
        <time>2016-07-01T09:11:27Z</time>
      </trkpt>
      <trkpt lat="44.21253" lon="5.09996">
        <ele>243.88904772787</ele>
        <time>2016-07-01T09:11:32Z</time>
      </trkpt>
      <trkpt lat="44.21257" lon="5.10029">
        <ele>243.02526635677</ele>
        <time>2016-07-01T09:11:37Z</time>
      </trkpt>
      <trkpt lat="44.21258" lon="5.1004">
        <ele>243.07172472444</ele>
        <time>2016-07-01T09:11:41Z</time>
      </trkpt>
      <trkpt lat="44.21273" lon="5.10049">
        <ele>243.51098744724</ele>
        <time>2016-07-01T09:11:45Z</time>
      </trkpt>
      <trkpt lat="44.213" lon="5.10045">
        <ele>243.68541806223</ele>
        <time>2016-07-01T09:11:50Z</time>
      </trkpt>
      <trkpt lat="44.2133" lon="5.10039">
        <ele>242.00451873812</ele>
        <time>2016-07-01T09:11:55Z</time>
      </trkpt>
      <trkpt lat="44.21355" lon="5.10033">
        <ele>239.78818733519</ele>
        <time>2016-07-01T09:11:59Z</time>
      </trkpt>
      <trkpt lat="44.21378" lon="5.10028">
        <ele>238.86798230495</ele>
        <time>2016-07-01T09:12:03Z</time>
      </trkpt>
      <trkpt lat="44.21408" lon="5.1002">
        <ele>238.37136478505</ele>
        <time>2016-07-01T09:12:08Z</time>
      </trkpt>
      <trkpt lat="44.21432" lon="5.10012">
        <ele>237.89222051099</ele>
        <time>2016-07-01T09:12:12Z</time>
      </trkpt>
      <trkpt lat="44.21457" lon="5.10004">
        <ele>237.53588115013</ele>
        <time>2016-07-01T09:12:16Z</time>
      </trkpt>
      <trkpt lat="44.21485" lon="5.09995">
        <ele>236.66262347349</ele>
        <time>2016-07-01T09:12:21Z</time>
      </trkpt>
      <trkpt lat="44.21512" lon="5.09984">
        <ele>235.88385327746</ele>
        <time>2016-07-01T09:12:26Z</time>
      </trkpt>
      <trkpt lat="44.21533" lon="5.09973">
        <ele>235.84368632504</ele>
        <time>2016-07-01T09:12:30Z</time>
      </trkpt>
      <trkpt lat="44.21553" lon="5.09959">
        <ele>236.04691116094</ele>
        <time>2016-07-01T09:12:34Z</time>
      </trkpt>
      <trkpt lat="44.21573" lon="5.09943">
        <ele>235.92068298683</ele>
        <time>2016-07-01T09:12:38Z</time>
      </trkpt>
      <trkpt lat="44.21593" lon="5.09926">
        <ele>235.85782766389</ele>
        <time>2016-07-01T09:12:42Z</time>
      </trkpt>
      <trkpt lat="44.2162" lon="5.09902">
        <ele>236.06313100309</ele>
        <time>2016-07-01T09:12:47Z</time>
      </trkpt>
      <trkpt lat="44.21642" lon="5.09885">
        <ele>235.65134835501</ele>
        <time>2016-07-01T09:12:51Z</time>
      </trkpt>
      <trkpt lat="44.21664" lon="5.09869">
        <ele>235.36766060686</ele>
        <time>2016-07-01T09:12:55Z</time>
      </trkpt>
      <trkpt lat="44.21684" lon="5.09854">
        <ele>234.97177934717</ele>
        <time>2016-07-01T09:12:59Z</time>
      </trkpt>
      <trkpt lat="44.21703" lon="5.0984">
        <ele>234.19326048512</ele>
        <time>2016-07-01T09:13:03Z</time>
      </trkpt>
      <trkpt lat="44.21729" lon="5.09821">
        <ele>235.73591637628</ele>
        <time>2016-07-01T09:13:08Z</time>
      </trkpt>
      <trkpt lat="44.21761" lon="5.09802">
        <ele>234.08760996442</ele>
        <time>2016-07-01T09:13:13Z</time>
      </trkpt>
      <trkpt lat="44.21784" lon="5.09786">
        <ele>232.08892222212</ele>
        <time>2016-07-01T09:13:17Z</time>
      </trkpt>
      <trkpt lat="44.21813" lon="5.09768">
        <ele>232.37129617458</ele>
        <time>2016-07-01T09:13:22Z</time>
      </trkpt>
      <trkpt lat="44.21835" lon="5.09755">
        <ele>233.03471746565</ele>
        <time>2016-07-01T09:13:26Z</time>
      </trkpt>
      <trkpt lat="44.21862" lon="5.0974">
        <ele>232.99218147852</ele>
        <time>2016-07-01T09:13:31Z</time>
      </trkpt>
      <trkpt lat="44.21885" lon="5.0975">
        <ele>232.05430199717</ele>
        <time>2016-07-01T09:13:36Z</time>
      </trkpt>
      <trkpt lat="44.21897" lon="5.09775">
        <ele>230.72494428567</ele>
        <time>2016-07-01T09:13:40Z</time>
      </trkpt>
      <trkpt lat="44.21902" lon="5.09816">
        <ele>229.9733797799</ele>
        <time>2016-07-01T09:13:45Z</time>
      </trkpt>
      <trkpt lat="44.21904" lon="5.09846">
        <ele>229.02137604947</ele>
        <time>2016-07-01T09:13:49Z</time>
      </trkpt>
      <trkpt lat="44.21903" lon="5.09877">
        <ele>228.22666626882</ele>
        <time>2016-07-01T09:13:53Z</time>
      </trkpt>
      <trkpt lat="44.219" lon="5.09907">
        <ele>227.85549168856</ele>
        <time>2016-07-01T09:13:57Z</time>
      </trkpt>
      <trkpt lat="44.21897" lon="5.09945">
        <ele>228.18914899318</ele>
        <time>2016-07-01T09:14:02Z</time>
      </trkpt>
      <trkpt lat="44.21896" lon="5.09974">
        <ele>228.11753233628</ele>
        <time>2016-07-01T09:14:06Z</time>
      </trkpt>
      <trkpt lat="44.21894" lon="5.10005">
        <ele>227.7832339095</ele>
        <time>2016-07-01T09:14:10Z</time>
      </trkpt>
      <trkpt lat="44.2189" lon="5.10046">
        <ele>227.09910508202</ele>
        <time>2016-07-01T09:14:15Z</time>
      </trkpt>
      <trkpt lat="44.21888" lon="5.10078">
        <ele>226.33077300993</ele>
        <time>2016-07-01T09:14:19Z</time>
      </trkpt>
      <trkpt lat="44.21885" lon="5.10112">
        <ele>225.91276426045</ele>
        <time>2016-07-01T09:14:23Z</time>
      </trkpt>
      <trkpt lat="44.21882" lon="5.10156">
        <ele>225.45660088211</ele>
        <time>2016-07-01T09:14:28Z</time>
      </trkpt>
      <trkpt lat="44.21879" lon="5.10193">
        <ele>224.87655400264</ele>
        <time>2016-07-01T09:14:32Z</time>
      </trkpt>
      <trkpt lat="44.21876" lon="5.10236">
        <ele>223.90465451005</ele>
        <time>2016-07-01T09:14:37Z</time>
      </trkpt>
      <trkpt lat="44.21872" lon="5.10282">
        <ele>225.22676959797</ele>
        <time>2016-07-01T09:14:42Z</time>
      </trkpt>
      <trkpt lat="44.21868" lon="5.10327">
        <ele>225.76639639812</ele>
        <time>2016-07-01T09:14:47Z</time>
      </trkpt>
      <trkpt lat="44.21865" lon="5.10362">
        <ele>224.9814341158</ele>
        <time>2016-07-01T09:14:51Z</time>
      </trkpt>
      <trkpt lat="44.21863" lon="5.10397">
        <ele>224.73536631693</ele>
        <time>2016-07-01T09:14:55Z</time>
      </trkpt>
      <trkpt lat="44.21862" lon="5.10431">
        <ele>224.91770991864</ele>
        <time>2016-07-01T09:14:59Z</time>
      </trkpt>
      <trkpt lat="44.21862" lon="5.10468">
        <ele>224.90164397721</ele>
        <time>2016-07-01T09:15:04Z</time>
      </trkpt>
      <trkpt lat="44.21862" lon="5.10509">
        <ele>226.14562521459</ele>
        <time>2016-07-01T09:15:09Z</time>
      </trkpt>
      <trkpt lat="44.21861" lon="5.10541">
        <ele>227.18172131621</ele>
        <time>2016-07-01T09:15:13Z</time>
      </trkpt>
      <trkpt lat="44.21857" lon="5.10579">
        <ele>228.17457740072</ele>
        <time>2016-07-01T09:15:18Z</time>
      </trkpt>
      <trkpt lat="44.21852" lon="5.10612">
        <ele>228.69471493182</ele>
        <time>2016-07-01T09:15:22Z</time>
      </trkpt>
      <trkpt lat="44.21846" lon="5.10644">
        <ele>228.63407503672</ele>
        <time>2016-07-01T09:15:26Z</time>
      </trkpt>
      <trkpt lat="44.21841" lon="5.10676">
        <ele>228.41690084864</ele>
        <time>2016-07-01T09:15:30Z</time>
      </trkpt>
      <trkpt lat="44.21834" lon="5.10718">
        <ele>227.68215261014</ele>
        <time>2016-07-01T09:15:35Z</time>
      </trkpt>
      <trkpt lat="44.21829" lon="5.10751">
        <ele>226.79923312858</ele>
        <time>2016-07-01T09:15:39Z</time>
      </trkpt>
      <trkpt lat="44.21823" lon="5.10794">
        <ele>227.09898053553</ele>
        <time>2016-07-01T09:15:44Z</time>
      </trkpt>
      <trkpt lat="44.21819" lon="5.10828">
        <ele>227.60919392371</ele>
        <time>2016-07-01T09:15:48Z</time>
      </trkpt>
      <trkpt lat="44.21817" lon="5.10862">
        <ele>228.07952242583</ele>
        <time>2016-07-01T09:15:52Z</time>
      </trkpt>
      <trkpt lat="44.21818" lon="5.10897">
        <ele>228.18913044701</ele>
        <time>2016-07-01T09:15:56Z</time>
      </trkpt>
      <trkpt lat="44.21823" lon="5.10942">
        <ele>229.42257624076</ele>
        <time>2016-07-01T09:16:01Z</time>
      </trkpt>
      <trkpt lat="44.21825" lon="5.10977">
        <ele>229.7890182916</ele>
        <time>2016-07-01T09:16:05Z</time>
      </trkpt>
      <trkpt lat="44.21828" lon="5.11022">
        <ele>229.38511339909</ele>
        <time>2016-07-01T09:16:10Z</time>
      </trkpt>
      <trkpt lat="44.2183" lon="5.11056">
        <ele>229.9274275144</ele>
        <time>2016-07-01T09:16:14Z</time>
      </trkpt>
      <trkpt lat="44.21833" lon="5.11101">
        <ele>230.46059268474</ele>
        <time>2016-07-01T09:16:19Z</time>
      </trkpt>
      <trkpt lat="44.21838" lon="5.11136">
        <ele>230.92655048008</ele>
        <time>2016-07-01T09:16:23Z</time>
      </trkpt>
      <trkpt lat="44.21848" lon="5.11168">
        <ele>230.75650102617</ele>
        <time>2016-07-01T09:16:27Z</time>
      </trkpt>
      <trkpt lat="44.2186" lon="5.11199">
        <ele>230.58204772376</ele>
        <time>2016-07-01T09:16:31Z</time>
      </trkpt>
      <trkpt lat="44.21879" lon="5.11234">
        <ele>230.61985419447</ele>
        <time>2016-07-01T09:16:36Z</time>
      </trkpt>
      <trkpt lat="44.21898" lon="5.1127">
        <ele>230.72205136442</ele>
        <time>2016-07-01T09:16:41Z</time>
      </trkpt>
      <trkpt lat="44.21914" lon="5.113">
        <ele>230.29242074301</ele>
        <time>2016-07-01T09:16:45Z</time>
      </trkpt>
      <trkpt lat="44.21931" lon="5.11337">
        <ele>230.60727296903</ele>
        <time>2016-07-01T09:16:50Z</time>
      </trkpt>
      <trkpt lat="44.21945" lon="5.11375">
        <ele>231.22211838493</ele>
        <time>2016-07-01T09:16:55Z</time>
      </trkpt>
      <trkpt lat="44.21952" lon="5.11405">
        <ele>231.89041887769</ele>
        <time>2016-07-01T09:16:59Z</time>
      </trkpt>
      <trkpt lat="44.21957" lon="5.11434">
        <ele>232.10790825902</ele>
        <time>2016-07-01T09:17:03Z</time>
      </trkpt>
      <trkpt lat="44.21959" lon="5.11469">
        <ele>232.20649344999</ele>
        <time>2016-07-01T09:17:08Z</time>
      </trkpt>
      <trkpt lat="44.21958" lon="5.11503">
        <ele>232.98634995706</ele>
        <time>2016-07-01T09:17:13Z</time>
      </trkpt>
      <trkpt lat="44.21956" lon="5.1153">
        <ele>233.85715948553</ele>
        <time>2016-07-01T09:17:17Z</time>
      </trkpt>
      <trkpt lat="44.21952" lon="5.11563">
        <ele>233.25281901113</ele>
        <time>2016-07-01T09:17:22Z</time>
      </trkpt>
      <trkpt lat="44.21948" lon="5.1159">
        <ele>233.68957247306</ele>
        <time>2016-07-01T09:17:26Z</time>
      </trkpt>
      <trkpt lat="44.21948" lon="5.11623">
        <ele>234.19938919331</ele>
        <time>2016-07-01T09:17:31Z</time>
      </trkpt>
      <trkpt lat="44.2195" lon="5.11652">
        <ele>233.94746169039</ele>
        <time>2016-07-01T09:17:35Z</time>
      </trkpt>
      <trkpt lat="44.21954" lon="5.1168">
        <ele>233.7854222269</ele>
        <time>2016-07-01T09:17:39Z</time>
      </trkpt>
      <trkpt lat="44.21963" lon="5.11715">
        <ele>234.2494631783</ele>
        <time>2016-07-01T09:17:44Z</time>
      </trkpt>
      <trkpt lat="44.2197" lon="5.11742">
        <ele>234.63194038409</ele>
        <time>2016-07-01T09:17:48Z</time>
      </trkpt>
      <trkpt lat="44.21975" lon="5.11778">
        <ele>234.85065397528</ele>
        <time>2016-07-01T09:17:53Z</time>
      </trkpt>
      <trkpt lat="44.21977" lon="5.11806">
        <ele>235.02169948124</ele>
        <time>2016-07-01T09:17:57Z</time>
      </trkpt>
      <trkpt lat="44.21976" lon="5.11838">
        <ele>235.18449474299</ele>
        <time>2016-07-01T09:18:02Z</time>
      </trkpt>
      <trkpt lat="44.21974" lon="5.1186">
        <ele>235.29969528446</ele>
        <time>2016-07-01T09:18:06Z</time>
      </trkpt>
      <trkpt lat="44.21972" lon="5.1189">
        <ele>235.81438531527</ele>
        <time>2016-07-01T09:18:11Z</time>
      </trkpt>
      <trkpt lat="44.2197" lon="5.11909">
        <ele>235.55026170058</ele>
        <time>2016-07-01T09:18:15Z</time>
      </trkpt>
      <trkpt lat="44.21968" lon="5.11933">
        <ele>235.15977427466</ele>
        <time>2016-07-01T09:18:19Z</time>
      </trkpt>
      <trkpt lat="44.21966" lon="5.11958">
        <ele>235.43411121824</ele>
        <time>2016-07-01T09:18:23Z</time>
      </trkpt>
      <trkpt lat="44.21963" lon="5.11983">
        <ele>236.91538988097</ele>
        <time>2016-07-01T09:18:27Z</time>
      </trkpt>
      <trkpt lat="44.2196" lon="5.12004">
        <ele>238.10596330241</ele>
        <time>2016-07-01T09:18:31Z</time>
      </trkpt>
      <trkpt lat="44.21953" lon="5.12028">
        <ele>239.51439592792</ele>
        <time>2016-07-01T09:18:35Z</time>
      </trkpt>
      <trkpt lat="44.21944" lon="5.12054">
        <ele>240.06555505421</ele>
        <time>2016-07-01T09:18:40Z</time>
      </trkpt>
      <trkpt lat="44.21938" lon="5.12072">
        <ele>239.07773607384</ele>
        <time>2016-07-01T09:18:44Z</time>
      </trkpt>
      <trkpt lat="44.21931" lon="5.12099">
        <ele>237.98703589103</ele>
        <time>2016-07-01T09:18:49Z</time>
      </trkpt>
      <trkpt lat="44.21927" lon="5.12119">
        <ele>238.25540186617</ele>
        <time>2016-07-01T09:18:53Z</time>
      </trkpt>
      <trkpt lat="44.21923" lon="5.12139">
        <ele>238.60612385045</ele>
        <time>2016-07-01T09:18:57Z</time>
      </trkpt>
      <trkpt lat="44.21921" lon="5.1216">
        <ele>238.54408252608</ele>
        <time>2016-07-01T09:19:01Z</time>
      </trkpt>
      <trkpt lat="44.21921" lon="5.12181">
        <ele>238.06493813263</ele>
        <time>2016-07-01T09:19:05Z</time>
      </trkpt>
      <trkpt lat="44.21921" lon="5.12229">
        <ele>239.14787655069</ele>
        <time>2016-07-01T09:19:10Z</time>
      </trkpt>
      <trkpt lat="44.21921" lon="5.12257">
        <ele>239.04185420624</ele>
        <time>2016-07-01T09:19:15Z</time>
      </trkpt>
      <trkpt lat="44.21921" lon="5.1228">
        <ele>239.18000904903</ele>
        <time>2016-07-01T09:19:19Z</time>
      </trkpt>
      <trkpt lat="44.21922" lon="5.12307">
        <ele>239.57481708467</ele>
        <time>2016-07-01T09:19:24Z</time>
      </trkpt>
      <trkpt lat="44.21922" lon="5.12329">
        <ele>239.82586544132</ele>
        <time>2016-07-01T09:19:28Z</time>
      </trkpt>
      <trkpt lat="44.21922" lon="5.12358">
        <ele>240.28030474652</ele>
        <time>2016-07-01T09:19:33Z</time>
      </trkpt>
      <trkpt lat="44.21922" lon="5.12387">
        <ele>241.06299238308</ele>
        <time>2016-07-01T09:19:38Z</time>
      </trkpt>
      <trkpt lat="44.21921" lon="5.1241">
        <ele>241.24247576143</ele>
        <time>2016-07-01T09:19:42Z</time>
      </trkpt>
      <trkpt lat="44.21922" lon="5.12433">
        <ele>241.24515883555</ele>
        <time>2016-07-01T09:19:46Z</time>
      </trkpt>
      <trkpt lat="44.21924" lon="5.12463">
        <ele>241.26758906447</ele>
        <time>2016-07-01T09:19:51Z</time>
      </trkpt>
      <trkpt lat="44.21925" lon="5.12486">
        <ele>241.93445871818</ele>
        <time>2016-07-01T09:19:55Z</time>
      </trkpt>
      <trkpt lat="44.21925" lon="5.12515">
        <ele>242.51159748222</ele>
        <time>2016-07-01T09:20:00Z</time>
      </trkpt>
      <trkpt lat="44.21925" lon="5.12541">
        <ele>243.18472820286</ele>
        <time>2016-07-01T09:20:04Z</time>
      </trkpt>
      <trkpt lat="44.21926" lon="5.12569">
        <ele>243.4205420231</ele>
        <time>2016-07-01T09:20:09Z</time>
      </trkpt>
      <trkpt lat="44.21926" lon="5.12596">
        <ele>243.13394877323</ele>
        <time>2016-07-01T09:20:13Z</time>
      </trkpt>
      <trkpt lat="44.21926" lon="5.1262">
        <ele>244.40132699665</ele>
        <time>2016-07-01T09:20:17Z</time>
      </trkpt>
      <trkpt lat="44.21926" lon="5.12647">
        <ele>245.70920460587</ele>
        <time>2016-07-01T09:20:22Z</time>
      </trkpt>
      <trkpt lat="44.21926" lon="5.1267">
        <ele>246.09716848837</ele>
        <time>2016-07-01T09:20:26Z</time>
      </trkpt>
      <trkpt lat="44.21926" lon="5.12693">
        <ele>247.5200081051</ele>
        <time>2016-07-01T09:20:30Z</time>
      </trkpt>
      <trkpt lat="44.21927" lon="5.12715">
        <ele>248.11416931845</ele>
        <time>2016-07-01T09:20:34Z</time>
      </trkpt>
      <trkpt lat="44.21929" lon="5.12741">
        <ele>247.83135686495</ele>
        <time>2016-07-01T09:20:39Z</time>
      </trkpt>
      <trkpt lat="44.21932" lon="5.12772">
        <ele>245.76116168968</ele>
        <time>2016-07-01T09:20:44Z</time>
      </trkpt>
      <trkpt lat="44.21934" lon="5.12795">
        <ele>245.84057790169</ele>
        <time>2016-07-01T09:20:48Z</time>
      </trkpt>
      <trkpt lat="44.21935" lon="5.12828">
        <ele>246.68043817599</ele>
        <time>2016-07-01T09:20:53Z</time>
      </trkpt>
      <trkpt lat="44.21936" lon="5.12851">
        <ele>247.81507953532</ele>
        <time>2016-07-01T09:20:57Z</time>
      </trkpt>
      <trkpt lat="44.21936" lon="5.12881">
        <ele>249.16942367766</ele>
        <time>2016-07-01T09:21:02Z</time>
      </trkpt>
      <trkpt lat="44.21936" lon="5.12905">
        <ele>250.50957143453</ele>
        <time>2016-07-01T09:21:06Z</time>
      </trkpt>
      <trkpt lat="44.21937" lon="5.12929">
        <ele>251.30060788947</ele>
        <time>2016-07-01T09:21:10Z</time>
      </trkpt>
      <trkpt lat="44.21937" lon="5.12955">
        <ele>252.42942645878</ele>
        <time>2016-07-01T09:21:14Z</time>
      </trkpt>
      <trkpt lat="44.21936" lon="5.12986">
        <ele>254.1260226741</ele>
        <time>2016-07-01T09:21:19Z</time>
      </trkpt>
      <trkpt lat="44.21934" lon="5.13013">
        <ele>255.76330328125</ele>
        <time>2016-07-01T09:21:23Z</time>
      </trkpt>
      <trkpt lat="44.21931" lon="5.13043">
        <ele>257.16070999347</ele>
        <time>2016-07-01T09:21:28Z</time>
      </trkpt>
      <trkpt lat="44.21924" lon="5.13066">
        <ele>258.83290253453</ele>
        <time>2016-07-01T09:21:32Z</time>
      </trkpt>
      <trkpt lat="44.21918" lon="5.13085">
        <ele>259.6695562244</ele>
        <time>2016-07-01T09:21:36Z</time>
      </trkpt>
      <trkpt lat="44.21908" lon="5.13105">
        <ele>258.81843999693</ele>
        <time>2016-07-01T09:21:40Z</time>
      </trkpt>
      <trkpt lat="44.21895" lon="5.13126">
        <ele>259.77295359466</ele>
        <time>2016-07-01T09:21:44Z</time>
      </trkpt>
      <trkpt lat="44.2188" lon="5.13144">
        <ele>261.26240402898</ele>
        <time>2016-07-01T09:21:49Z</time>
      </trkpt>
      <trkpt lat="44.21867" lon="5.1316">
        <ele>262.55919502824</ele>
        <time>2016-07-01T09:21:53Z</time>
      </trkpt>
      <trkpt lat="44.21851" lon="5.1318">
        <ele>264.40174244679</ele>
        <time>2016-07-01T09:21:58Z</time>
      </trkpt>
      <trkpt lat="44.21839" lon="5.13195">
        <ele>265.00849006259</ele>
        <time>2016-07-01T09:22:02Z</time>
      </trkpt>
      <trkpt lat="44.21822" lon="5.13215">
        <ele>266.25976005026</ele>
        <time>2016-07-01T09:22:07Z</time>
      </trkpt>
      <trkpt lat="44.21806" lon="5.13236">
        <ele>267.93432689752</ele>
        <time>2016-07-01T09:22:12Z</time>
      </trkpt>
      <trkpt lat="44.21792" lon="5.13254">
        <ele>269.09735403188</ele>
        <time>2016-07-01T09:22:16Z</time>
      </trkpt>
      <trkpt lat="44.21776" lon="5.13275">
        <ele>270.17490290064</ele>
        <time>2016-07-01T09:22:21Z</time>
      </trkpt>
      <trkpt lat="44.21763" lon="5.13292">
        <ele>270.00190254307</ele>
        <time>2016-07-01T09:22:25Z</time>
      </trkpt>
      <trkpt lat="44.21751" lon="5.13306">
        <ele>269.70778800242</ele>
        <time>2016-07-01T09:22:29Z</time>
      </trkpt>
      <trkpt lat="44.21729" lon="5.13316">
        <ele>270.89996513031</ele>
        <time>2016-07-01T09:22:34Z</time>
      </trkpt>
      <trkpt lat="44.21705" lon="5.13316">
        <ele>271.35796012053</ele>
        <time>2016-07-01T09:22:39Z</time>
      </trkpt>
      <trkpt lat="44.21693" lon="5.13306">
        <ele>273.11009950992</ele>
        <time>2016-07-01T09:22:43Z</time>
      </trkpt>
      <trkpt lat="44.21677" lon="5.13291">
        <ele>275.51778179168</ele>
        <time>2016-07-01T09:22:48Z</time>
      </trkpt>
      <trkpt lat="44.21662" lon="5.133">
        <ele>277.25592509516</ele>
        <time>2016-07-01T09:22:52Z</time>
      </trkpt>
      <trkpt lat="44.21665" lon="5.13319">
        <ele>277.10459053315</ele>
        <time>2016-07-01T09:22:56Z</time>
      </trkpt>
      <trkpt lat="44.21668" lon="5.13349">
        <ele>277.21247289056</ele>
        <time>2016-07-01T09:23:01Z</time>
      </trkpt>
      <trkpt lat="44.21672" lon="5.13382">
        <ele>276.48224349005</ele>
        <time>2016-07-01T09:23:06Z</time>
      </trkpt>
      <trkpt lat="44.21679" lon="5.1341">
        <ele>275.1577662454</ele>
        <time>2016-07-01T09:23:11Z</time>
      </trkpt>
      <trkpt lat="44.21683" lon="5.13432">
        <ele>273.94598460519</ele>
        <time>2016-07-01T09:23:15Z</time>
      </trkpt>
      <trkpt lat="44.21689" lon="5.13457">
        <ele>272.56373266424</ele>
        <time>2016-07-01T09:23:20Z</time>
      </trkpt>
      <trkpt lat="44.21693" lon="5.13477">
        <ele>271.67863849927</ele>
        <time>2016-07-01T09:23:24Z</time>
      </trkpt>
      <trkpt lat="44.217" lon="5.13506">
        <ele>270.82966288602</ele>
        <time>2016-07-01T09:23:29Z</time>
      </trkpt>
      <trkpt lat="44.21703" lon="5.13523">
        <ele>271.08540687903</ele>
        <time>2016-07-01T09:23:33Z</time>
      </trkpt>
      <trkpt lat="44.21711" lon="5.1355">
        <ele>276.90509561832</ele>
        <time>2016-07-01T09:23:38Z</time>
      </trkpt>
      <trkpt lat="44.21712" lon="5.13571">
        <ele>277.57186194282</ele>
        <time>2016-07-01T09:23:42Z</time>
      </trkpt>
      <trkpt lat="44.21715" lon="5.13591">
        <ele>278.03127510133</ele>
        <time>2016-07-01T09:23:46Z</time>
      </trkpt>
      <trkpt lat="44.21723" lon="5.13619">
        <ele>278.39435137968</ele>
        <time>2016-07-01T09:23:51Z</time>
      </trkpt>
      <trkpt lat="44.21728" lon="5.13646">
        <ele>278.08312975128</ele>
        <time>2016-07-01T09:23:55Z</time>
      </trkpt>
      <trkpt lat="44.21735" lon="5.13677">
        <ele>277.27457455268</ele>
        <time>2016-07-01T09:24:00Z</time>
      </trkpt>
      <trkpt lat="44.21741" lon="5.13703">
        <ele>276.25883383556</ele>
        <time>2016-07-01T09:24:05Z</time>
      </trkpt>
      <trkpt lat="44.21745" lon="5.13723">
        <ele>276.19587988732</ele>
        <time>2016-07-01T09:24:09Z</time>
      </trkpt>
      <trkpt lat="44.21754" lon="5.13744">
        <ele>278.2418490593</ele>
        <time>2016-07-01T09:24:13Z</time>
      </trkpt>
      <trkpt lat="44.21756" lon="5.13764">
        <ele>282.12510000033</ele>
        <time>2016-07-01T09:24:17Z</time>
      </trkpt>
      <trkpt lat="44.21761" lon="5.13785">
        <ele>284.46856294496</ele>
        <time>2016-07-01T09:24:21Z</time>
      </trkpt>
      <trkpt lat="44.21764" lon="5.13813">
        <ele>285.03888017865</ele>
        <time>2016-07-01T09:24:26Z</time>
      </trkpt>
      <trkpt lat="44.21771" lon="5.1384">
        <ele>285.89015355239</ele>
        <time>2016-07-01T09:24:31Z</time>
      </trkpt>
      <trkpt lat="44.21782" lon="5.13865">
        <ele>287.40341868122</ele>
        <time>2016-07-01T09:24:36Z</time>
      </trkpt>
      <trkpt lat="44.21789" lon="5.13885">
        <ele>289.41630671149</ele>
        <time>2016-07-01T09:24:40Z</time>
      </trkpt>
      <trkpt lat="44.21803" lon="5.13913">
        <ele>290.39828826826</ele>
        <time>2016-07-01T09:24:45Z</time>
      </trkpt>
      <trkpt lat="44.21818" lon="5.13941">
        <ele>287.1862118914</ele>
        <time>2016-07-01T09:24:49Z</time>
      </trkpt>
      <trkpt lat="44.2184" lon="5.13977">
        <ele>284.87209821979</ele>
        <time>2016-07-01T09:24:54Z</time>
      </trkpt>
      <trkpt lat="44.21851" lon="5.14011">
        <ele>280.92293649009</ele>
        <time>2016-07-01T09:24:58Z</time>
      </trkpt>
      <trkpt lat="44.21871" lon="5.14053">
        <ele>276.96729213166</ele>
        <time>2016-07-01T09:25:03Z</time>
      </trkpt>
      <trkpt lat="44.21889" lon="5.14082">
        <ele>276.0785879357</ele>
        <time>2016-07-01T09:25:07Z</time>
      </trkpt>
      <trkpt lat="44.21896" lon="5.14104">
        <ele>273.78847296098</ele>
        <time>2016-07-01T09:25:11Z</time>
      </trkpt>
      <trkpt lat="44.21912" lon="5.1412">
        <ele>272.39364656003</ele>
        <time>2016-07-01T09:25:16Z</time>
      </trkpt>
      <trkpt lat="44.21924" lon="5.14099">
        <ele>272.72509013546</ele>
        <time>2016-07-01T09:25:21Z</time>
      </trkpt>
      <trkpt lat="44.2194" lon="5.14086">
        <ele>274.01647505157</ele>
        <time>2016-07-01T09:25:25Z</time>
      </trkpt>
      <trkpt lat="44.21968" lon="5.14062">
        <ele>272.38793617598</ele>
        <time>2016-07-01T09:25:30Z</time>
      </trkpt>
      <trkpt lat="44.21991" lon="5.14042">
        <ele>271.25952839772</ele>
        <time>2016-07-01T09:25:34Z</time>
      </trkpt>
      <trkpt lat="44.22019" lon="5.14017">
        <ele>269.5354405297</ele>
        <time>2016-07-01T09:25:39Z</time>
      </trkpt>
      <trkpt lat="44.22039" lon="5.13998">
        <ele>268.67666615065</ele>
        <time>2016-07-01T09:25:43Z</time>
      </trkpt>
      <trkpt lat="44.22058" lon="5.13982">
        <ele>266.57205885985</ele>
        <time>2016-07-01T09:25:47Z</time>
      </trkpt>
      <trkpt lat="44.22072" lon="5.13968">
        <ele>264.21899940819</ele>
        <time>2016-07-01T09:25:51Z</time>
      </trkpt>
      <trkpt lat="44.22086" lon="5.13949">
        <ele>263.48304334388</ele>
        <time>2016-07-01T09:25:55Z</time>
      </trkpt>
      <trkpt lat="44.22103" lon="5.13924">
        <ele>261.32420526568</ele>
        <time>2016-07-01T09:26:00Z</time>
      </trkpt>
      <trkpt lat="44.22119" lon="5.13897">
        <ele>257.70244785624</ele>
        <time>2016-07-01T09:26:05Z</time>
      </trkpt>
      <trkpt lat="44.22133" lon="5.13875">
        <ele>254.81266502876</ele>
        <time>2016-07-01T09:26:09Z</time>
      </trkpt>
      <trkpt lat="44.2215" lon="5.13849">
        <ele>250.97883858897</ele>
        <time>2016-07-01T09:26:14Z</time>
      </trkpt>
      <trkpt lat="44.22165" lon="5.13818">
        <ele>253.09220775504</ele>
        <time>2016-07-01T09:26:19Z</time>
      </trkpt>
      <trkpt lat="44.22177" lon="5.13785">
        <ele>259.36369311713</ele>
        <time>2016-07-01T09:26:23Z</time>
      </trkpt>
      <trkpt lat="44.22195" lon="5.13753">
        <ele>263.77358451654</ele>
        <time>2016-07-01T09:26:28Z</time>
      </trkpt>
      <trkpt lat="44.2221" lon="5.1373">
        <ele>266.27096687833</ele>
        <time>2016-07-01T09:26:32Z</time>
      </trkpt>
      <trkpt lat="44.22224" lon="5.13706">
        <ele>268.03862187181</ele>
        <time>2016-07-01T09:26:36Z</time>
      </trkpt>
      <trkpt lat="44.22243" lon="5.13682">
        <ele>269.63636296768</ele>
        <time>2016-07-01T09:26:41Z</time>
      </trkpt>
      <trkpt lat="44.22255" lon="5.13669">
        <ele>272.48832395358</ele>
        <time>2016-07-01T09:26:45Z</time>
      </trkpt>
      <trkpt lat="44.22277" lon="5.13648">
        <ele>274.00774933405</ele>
        <time>2016-07-01T09:26:50Z</time>
      </trkpt>
      <trkpt lat="44.223" lon="5.13632">
        <ele>271.19804239609</ele>
        <time>2016-07-01T09:26:55Z</time>
      </trkpt>
      <trkpt lat="44.22322" lon="5.13618">
        <ele>269.6890328215</ele>
        <time>2016-07-01T09:27:00Z</time>
      </trkpt>
      <trkpt lat="44.2234" lon="5.13606">
        <ele>269.17288179914</ele>
        <time>2016-07-01T09:27:04Z</time>
      </trkpt>
      <trkpt lat="44.22358" lon="5.13595">
        <ele>268.09517683886</ele>
        <time>2016-07-01T09:27:08Z</time>
      </trkpt>
      <trkpt lat="44.22376" lon="5.13585">
        <ele>267.37273121581</ele>
        <time>2016-07-01T09:27:12Z</time>
      </trkpt>
      <trkpt lat="44.224" lon="5.13576">
        <ele>268.2231661484</ele>
        <time>2016-07-01T09:27:17Z</time>
      </trkpt>
      <trkpt lat="44.22421" lon="5.1359">
        <ele>271.28567683954</ele>
        <time>2016-07-01T09:27:22Z</time>
      </trkpt>
      <trkpt lat="44.22438" lon="5.13602">
        <ele>271.66529985904</ele>
        <time>2016-07-01T09:27:26Z</time>
      </trkpt>
      <trkpt lat="44.22451" lon="5.13613">
        <ele>271.80168506551</ele>
        <time>2016-07-01T09:27:30Z</time>
      </trkpt>
      <trkpt lat="44.22465" lon="5.13622">
        <ele>273.09798006138</ele>
        <time>2016-07-01T09:27:34Z</time>
      </trkpt>
      <trkpt lat="44.22485" lon="5.13634">
        <ele>274.13274769186</ele>
        <time>2016-07-01T09:27:39Z</time>
      </trkpt>
      <trkpt lat="44.22507" lon="5.13648">
        <ele>273.59299381755</ele>
        <time>2016-07-01T09:27:44Z</time>
      </trkpt>
      <trkpt lat="44.22532" lon="5.13662">
        <ele>271.46403342523</ele>
        <time>2016-07-01T09:27:49Z</time>
      </trkpt>
      <trkpt lat="44.22555" lon="5.13657">
        <ele>269.64476887951</ele>
        <time>2016-07-01T09:27:54Z</time>
      </trkpt>
      <trkpt lat="44.22574" lon="5.13648">
        <ele>268.41105890244</ele>
        <time>2016-07-01T09:27:58Z</time>
      </trkpt>
      <trkpt lat="44.22599" lon="5.13647">
        <ele>267.02967155473</ele>
        <time>2016-07-01T09:28:02Z</time>
      </trkpt>
      <trkpt lat="44.22626" lon="5.13657">
        <ele>265.83562330359</ele>
        <time>2016-07-01T09:28:06Z</time>
      </trkpt>
      <trkpt lat="44.22659" lon="5.13671">
        <ele>263.08037314828</ele>
        <time>2016-07-01T09:28:11Z</time>
      </trkpt>
      <trkpt lat="44.22687" lon="5.13674">
        <ele>260.6643405546</ele>
        <time>2016-07-01T09:28:15Z</time>
      </trkpt>
      <trkpt lat="44.22725" lon="5.13676">
        <ele>259.25301204095</ele>
        <time>2016-07-01T09:28:20Z</time>
      </trkpt>
      <trkpt lat="44.22756" lon="5.13677">
        <ele>259.43928677206</ele>
        <time>2016-07-01T09:28:24Z</time>
      </trkpt>
      <trkpt lat="44.2279" lon="5.13678">
        <ele>259.5487365052</ele>
        <time>2016-07-01T09:28:28Z</time>
      </trkpt>
      <trkpt lat="44.22825" lon="5.1368">
        <ele>260.91304337654</ele>
        <time>2016-07-01T09:28:33Z</time>
      </trkpt>
      <trkpt lat="44.22851" lon="5.13682">
        <ele>260.78996914655</ele>
        <time>2016-07-01T09:28:37Z</time>
      </trkpt>
      <trkpt lat="44.22872" lon="5.13686">
        <ele>260.54403075487</ele>
        <time>2016-07-01T09:28:41Z</time>
      </trkpt>
      <trkpt lat="44.22889" lon="5.13694">
        <ele>260.17814933574</ele>
        <time>2016-07-01T09:28:45Z</time>
      </trkpt>
      <trkpt lat="44.22903" lon="5.13689">
        <ele>259.97867375348</ele>
        <time>2016-07-01T09:28:49Z</time>
      </trkpt>
      <trkpt lat="44.22911" lon="5.13674">
        <ele>258.22898660461</ele>
        <time>2016-07-01T09:28:53Z</time>
      </trkpt>
      <trkpt lat="44.22919" lon="5.13657">
        <ele>254.77491212593</ele>
        <time>2016-07-01T09:28:57Z</time>
      </trkpt>
      <trkpt lat="44.2293" lon="5.13631">
        <ele>250.42636223345</ele>
        <time>2016-07-01T09:29:02Z</time>
      </trkpt>
      <trkpt lat="44.22933" lon="5.13617">
        <ele>250.18505772429</ele>
        <time>2016-07-01T09:29:06Z</time>
      </trkpt>
      <trkpt lat="44.22923" lon="5.13605">
        <ele>249.90057599658</ele>
        <time>2016-07-01T09:29:11Z</time>
      </trkpt>
      <trkpt lat="44.22911" lon="5.13604">
        <ele>249.44688664427</ele>
        <time>2016-07-01T09:29:15Z</time>
      </trkpt>
      <trkpt lat="44.22918" lon="5.1361">
        <ele>248.13564121259</ele>
        <time>2016-07-01T09:29:32Z</time>
      </trkpt>
      <trkpt lat="44.22921" lon="5.13621">
        <ele>247.92435047091</ele>
        <time>2016-07-01T09:29:38Z</time>
      </trkpt>
      <trkpt lat="44.22917" lon="5.13628">
        <ele>246.58787887604</ele>
        <time>2016-07-01T09:32:05Z</time>
      </trkpt>
      <trkpt lat="44.22908" lon="5.13627">
        <ele>246.79132044455</ele>
        <time>2016-07-01T09:32:09Z</time>
      </trkpt>
      <trkpt lat="44.229" lon="5.13623">
        <ele>246.61405596453</ele>
        <time>2016-07-01T09:32:20Z</time>
      </trkpt>
      <trkpt lat="44.22893" lon="5.13617">
        <ele>246.28328364751</ele>
        <time>2016-07-01T09:32:28Z</time>
      </trkpt>
      <trkpt lat="44.22891" lon="5.13615">
        <ele>245.07511781622</ele>
        <time>2016-07-01T09:33:04Z</time>
      </trkpt>
      <trkpt lat="44.22883" lon="5.13608">
        <ele>244.12256765798</ele>
        <time>2016-07-01T09:33:09Z</time>
      </trkpt>
      <trkpt lat="44.22876" lon="5.13601">
        <ele>242.96715978912</ele>
        <time>2016-07-01T09:33:16Z</time>
      </trkpt>
      <trkpt lat="44.22883" lon="5.13592">
        <ele>243.14729274074</ele>
        <time>2016-07-01T09:34:43Z</time>
      </trkpt>
      <trkpt lat="44.22884" lon="5.13581">
        <ele>244.21361648216</ele>
        <time>2016-07-01T09:35:52Z</time>
      </trkpt>
      <trkpt lat="44.22878" lon="5.1359">
        <ele>241.35966637397</ele>
        <time>2016-07-01T09:38:21Z</time>
      </trkpt>
      <trkpt lat="44.22882" lon="5.13601">
        <ele>238.45549735562</ele>
        <time>2016-07-01T09:39:07Z</time>
      </trkpt>
      <trkpt lat="44.22889" lon="5.13606">
        <ele>237.1898630031</ele>
        <time>2016-07-01T09:39:22Z</time>
      </trkpt>
      <trkpt lat="44.22898" lon="5.13605">
        <ele>236.05641170302</ele>
        <time>2016-07-01T09:39:39Z</time>
      </trkpt>
      <trkpt lat="44.22904" lon="5.13614">
        <ele>235.56891112898</ele>
        <time>2016-07-01T09:39:47Z</time>
      </trkpt>
      <trkpt lat="44.22909" lon="5.13624">
        <ele>234.58874178144</ele>
        <time>2016-07-01T09:40:11Z</time>
      </trkpt>
      <trkpt lat="44.22917" lon="5.13627">
        <ele>236.5238240115</ele>
        <time>2016-07-01T09:40:25Z</time>
      </trkpt>
      <trkpt lat="44.22921" lon="5.13617">
        <ele>239.02439085501</ele>
        <time>2016-07-01T09:44:04Z</time>
      </trkpt>
      <trkpt lat="44.22927" lon="5.13609">
        <ele>239.11282591017</ele>
        <time>2016-07-01T09:44:11Z</time>
      </trkpt>
      <trkpt lat="44.22936" lon="5.13605">
        <ele>239.9238471551</ele>
        <time>2016-07-01T09:44:21Z</time>
      </trkpt>
      <trkpt lat="44.22933" lon="5.13595">
        <ele>244.16047488994</ele>
        <time>2016-07-01T09:45:15Z</time>
      </trkpt>
      <trkpt lat="44.22933" lon="5.13576">
        <ele>246.432225408</ele>
        <time>2016-07-01T09:45:19Z</time>
      </trkpt>
      <trkpt lat="44.22933" lon="5.13549">
        <ele>248.43327280174</ele>
        <time>2016-07-01T09:45:23Z</time>
      </trkpt>
      <trkpt lat="44.22932" lon="5.13522">
        <ele>246.69456935668</ele>
        <time>2016-07-01T09:45:27Z</time>
      </trkpt>
      <trkpt lat="44.2293" lon="5.135">
        <ele>246.77560557264</ele>
        <time>2016-07-01T09:45:31Z</time>
      </trkpt>
      <trkpt lat="44.22926" lon="5.13476">
        <ele>246.08719410615</ele>
        <time>2016-07-01T09:45:35Z</time>
      </trkpt>
      <trkpt lat="44.22921" lon="5.13448">
        <ele>244.71652515592</ele>
        <time>2016-07-01T09:45:40Z</time>
      </trkpt>
      <trkpt lat="44.22916" lon="5.13419">
        <ele>243.17788139362</ele>
        <time>2016-07-01T09:45:45Z</time>
      </trkpt>
      <trkpt lat="44.22911" lon="5.13397">
        <ele>241.19364345691</ele>
        <time>2016-07-01T09:45:49Z</time>
      </trkpt>
      <trkpt lat="44.22907" lon="5.13371">
        <ele>240.6300298178</ele>
        <time>2016-07-01T09:45:53Z</time>
      </trkpt>
      <trkpt lat="44.22903" lon="5.13348">
        <ele>242.48777748022</ele>
        <time>2016-07-01T09:45:57Z</time>
      </trkpt>
      <trkpt lat="44.22892" lon="5.13331">
        <ele>242.75698238635</ele>
        <time>2016-07-01T09:46:01Z</time>
      </trkpt>
      <trkpt lat="44.22866" lon="5.13315">
        <ele>243.30895223511</ele>
        <time>2016-07-01T09:46:06Z</time>
      </trkpt>
      <trkpt lat="44.22842" lon="5.13299">
        <ele>244.83026669206</ele>
        <time>2016-07-01T09:46:10Z</time>
      </trkpt>
      <trkpt lat="44.22819" lon="5.13286">
        <ele>247.14189677741</ele>
        <time>2016-07-01T09:46:14Z</time>
      </trkpt>
      <trkpt lat="44.22788" lon="5.13267">
        <ele>246.55849397725</ele>
        <time>2016-07-01T09:46:19Z</time>
      </trkpt>
      <trkpt lat="44.22761" lon="5.13252">
        <ele>246.57256105106</ele>
        <time>2016-07-01T09:46:23Z</time>
      </trkpt>
      <trkpt lat="44.22729" lon="5.13231">
        <ele>244.78640230798</ele>
        <time>2016-07-01T09:46:28Z</time>
      </trkpt>
      <trkpt lat="44.22703" lon="5.13215">
        <ele>242.2438095102</ele>
        <time>2016-07-01T09:46:32Z</time>
      </trkpt>
      <trkpt lat="44.22674" lon="5.13186">
        <ele>239.78761139239</ele>
        <time>2016-07-01T09:46:37Z</time>
      </trkpt>
      <trkpt lat="44.22663" lon="5.13146">
        <ele>239.55576969329</ele>
        <time>2016-07-01T09:46:41Z</time>
      </trkpt>
      <trkpt lat="44.22663" lon="5.13107">
        <ele>239.45369458184</ele>
        <time>2016-07-01T09:46:45Z</time>
      </trkpt>
      <trkpt lat="44.22667" lon="5.13062">
        <ele>239.83172387659</ele>
        <time>2016-07-01T09:46:50Z</time>
      </trkpt>
      <trkpt lat="44.2267" lon="5.13028">
        <ele>238.69112698551</ele>
        <time>2016-07-01T09:46:54Z</time>
      </trkpt>
      <trkpt lat="44.22671" lon="5.12989">
        <ele>238.98103314522</ele>
        <time>2016-07-01T09:46:59Z</time>
      </trkpt>
      <trkpt lat="44.22672" lon="5.12957">
        <ele>239.12115373258</ele>
        <time>2016-07-01T09:47:03Z</time>
      </trkpt>
      <trkpt lat="44.22685" lon="5.1293">
        <ele>239.21861189594</ele>
        <time>2016-07-01T09:47:07Z</time>
      </trkpt>
      <trkpt lat="44.22699" lon="5.12908">
        <ele>239.35709232308</ele>
        <time>2016-07-01T09:47:11Z</time>
      </trkpt>
      <trkpt lat="44.22705" lon="5.12878">
        <ele>238.44928544818</ele>
        <time>2016-07-01T09:47:15Z</time>
      </trkpt>
      <trkpt lat="44.22701" lon="5.12839">
        <ele>235.48136854554</ele>
        <time>2016-07-01T09:47:20Z</time>
      </trkpt>
      <trkpt lat="44.22703" lon="5.12808">
        <ele>234.46122091082</ele>
        <time>2016-07-01T09:47:24Z</time>
      </trkpt>
      <trkpt lat="44.22711" lon="5.12775">
        <ele>235.07508146668</ele>
        <time>2016-07-01T09:47:28Z</time>
      </trkpt>
      <trkpt lat="44.22721" lon="5.12745">
        <ele>236.7186763784</ele>
        <time>2016-07-01T09:47:32Z</time>
      </trkpt>
      <trkpt lat="44.22732" lon="5.12707">
        <ele>237.33506826242</ele>
        <time>2016-07-01T09:47:37Z</time>
      </trkpt>
      <trkpt lat="44.22739" lon="5.12676">
        <ele>238.48446259118</ele>
        <time>2016-07-01T09:47:41Z</time>
      </trkpt>
      <trkpt lat="44.22742" lon="5.12636">
        <ele>240.39781252544</ele>
        <time>2016-07-01T09:47:46Z</time>
      </trkpt>
      <trkpt lat="44.22739" lon="5.12605">
        <ele>240.33952545506</ele>
        <time>2016-07-01T09:47:50Z</time>
      </trkpt>
      <trkpt lat="44.22736" lon="5.12573">
        <ele>240.11487148026</ele>
        <time>2016-07-01T09:47:54Z</time>
      </trkpt>
      <trkpt lat="44.2273" lon="5.12536">
        <ele>240.737068967</ele>
        <time>2016-07-01T09:47:59Z</time>
      </trkpt>
      <trkpt lat="44.22721" lon="5.12502">
        <ele>240.63165900375</ele>
        <time>2016-07-01T09:48:04Z</time>
      </trkpt>
      <trkpt lat="44.22713" lon="5.12474">
        <ele>240.18321055909</ele>
        <time>2016-07-01T09:48:08Z</time>
      </trkpt>
      <trkpt lat="44.22704" lon="5.12445">
        <ele>239.62351240415</ele>
        <time>2016-07-01T09:48:12Z</time>
      </trkpt>
      <trkpt lat="44.2269" lon="5.12407">
        <ele>237.44704059914</ele>
        <time>2016-07-01T09:48:17Z</time>
      </trkpt>
      <trkpt lat="44.22675" lon="5.12376">
        <ele>235.41111320562</ele>
        <time>2016-07-01T09:48:22Z</time>
      </trkpt>
      <trkpt lat="44.22662" lon="5.12354">
        <ele>233.95641955192</ele>
        <time>2016-07-01T09:48:26Z</time>
      </trkpt>
      <trkpt lat="44.22647" lon="5.12333">
        <ele>233.3312501399</ele>
        <time>2016-07-01T09:48:31Z</time>
      </trkpt>
      <trkpt lat="44.22635" lon="5.12316">
        <ele>232.67734400855</ele>
        <time>2016-07-01T09:48:35Z</time>
      </trkpt>
      <trkpt lat="44.2262" lon="5.12294">
        <ele>234.50398505731</ele>
        <time>2016-07-01T09:48:40Z</time>
      </trkpt>
      <trkpt lat="44.22601" lon="5.12264">
        <ele>236.08671707387</ele>
        <time>2016-07-01T09:48:45Z</time>
      </trkpt>
      <trkpt lat="44.22585" lon="5.1224">
        <ele>238.48260017823</ele>
        <time>2016-07-01T09:48:49Z</time>
      </trkpt>
      <trkpt lat="44.22573" lon="5.12216">
        <ele>239.56503946091</ele>
        <time>2016-07-01T09:48:53Z</time>
      </trkpt>
      <trkpt lat="44.2256" lon="5.12185">
        <ele>239.89296663984</ele>
        <time>2016-07-01T09:48:58Z</time>
      </trkpt>
      <trkpt lat="44.22551" lon="5.1216">
        <ele>240.34718176608</ele>
        <time>2016-07-01T09:49:02Z</time>
      </trkpt>
      <trkpt lat="44.22541" lon="5.12133">
        <ele>240.18248225213</ele>
        <time>2016-07-01T09:49:06Z</time>
      </trkpt>
      <trkpt lat="44.22533" lon="5.12108">
        <ele>240.38941130024</ele>
        <time>2016-07-01T09:49:10Z</time>
      </trkpt>
      <trkpt lat="44.22522" lon="5.12076">
        <ele>240.66467381954</ele>
        <time>2016-07-01T09:49:15Z</time>
      </trkpt>
      <trkpt lat="44.22513" lon="5.12051">
        <ele>240.76094849234</ele>
        <time>2016-07-01T09:49:19Z</time>
      </trkpt>
      <trkpt lat="44.22504" lon="5.12027">
        <ele>240.8369573174</ele>
        <time>2016-07-01T09:49:23Z</time>
      </trkpt>
      <trkpt lat="44.22494" lon="5.11995">
        <ele>241.36339394384</ele>
        <time>2016-07-01T09:49:28Z</time>
      </trkpt>
      <trkpt lat="44.22488" lon="5.11967">
        <ele>241.86076733917</ele>
        <time>2016-07-01T09:49:32Z</time>
      </trkpt>
      <trkpt lat="44.22483" lon="5.11943">
        <ele>242.45227166933</ele>
        <time>2016-07-01T09:49:36Z</time>
      </trkpt>
      <trkpt lat="44.22476" lon="5.11911">
        <ele>243.07068552099</ele>
        <time>2016-07-01T09:49:41Z</time>
      </trkpt>
      <trkpt lat="44.22471" lon="5.11885">
        <ele>244.18160567763</ele>
        <time>2016-07-01T09:49:45Z</time>
      </trkpt>
      <trkpt lat="44.22466" lon="5.11861">
        <ele>244.50870585806</ele>
        <time>2016-07-01T09:49:49Z</time>
      </trkpt>
      <trkpt lat="44.2246" lon="5.11829">
        <ele>245.93355546778</ele>
        <time>2016-07-01T09:49:54Z</time>
      </trkpt>
      <trkpt lat="44.22454" lon="5.11804">
        <ele>246.16206589906</ele>
        <time>2016-07-01T09:49:58Z</time>
      </trkpt>
      <trkpt lat="44.22448" lon="5.11776">
        <ele>247.50899275608</ele>
        <time>2016-07-01T09:50:02Z</time>
      </trkpt>
      <trkpt lat="44.22442" lon="5.11747">
        <ele>248.53100372691</ele>
        <time>2016-07-01T09:50:07Z</time>
      </trkpt>
      <trkpt lat="44.22438" lon="5.11723">
        <ele>249.52231932338</ele>
        <time>2016-07-01T09:50:11Z</time>
      </trkpt>
      <trkpt lat="44.22433" lon="5.117">
        <ele>249.36446061485</ele>
        <time>2016-07-01T09:50:15Z</time>
      </trkpt>
      <trkpt lat="44.22428" lon="5.11678">
        <ele>249.50094992351</ele>
        <time>2016-07-01T09:50:19Z</time>
      </trkpt>
      <trkpt lat="44.22419" lon="5.11655">
        <ele>249.81359445032</ele>
        <time>2016-07-01T09:50:23Z</time>
      </trkpt>
      <trkpt lat="44.2241" lon="5.1163">
        <ele>244.53865993949</ele>
        <time>2016-07-01T09:50:28Z</time>
      </trkpt>
      <trkpt lat="44.224" lon="5.11608">
        <ele>241.84418398138</ele>
        <time>2016-07-01T09:50:32Z</time>
      </trkpt>
      <trkpt lat="44.2239" lon="5.11582">
        <ele>241.30130647175</ele>
        <time>2016-07-01T09:50:37Z</time>
      </trkpt>
      <trkpt lat="44.22382" lon="5.11562">
        <ele>240.97064244392</ele>
        <time>2016-07-01T09:50:41Z</time>
      </trkpt>
      <trkpt lat="44.22375" lon="5.11543">
        <ele>240.91394489052</ele>
        <time>2016-07-01T09:50:45Z</time>
      </trkpt>
      <trkpt lat="44.22369" lon="5.11521">
        <ele>242.50566873433</ele>
        <time>2016-07-01T09:50:49Z</time>
      </trkpt>
      <trkpt lat="44.22364" lon="5.11501">
        <ele>243.82160300223</ele>
        <time>2016-07-01T09:50:53Z</time>
      </trkpt>
      <trkpt lat="44.2236" lon="5.11479">
        <ele>244.57802549214</ele>
        <time>2016-07-01T09:50:57Z</time>
      </trkpt>
      <trkpt lat="44.22356" lon="5.11452">
        <ele>247.34028998699</ele>
        <time>2016-07-01T09:51:02Z</time>
      </trkpt>
      <trkpt lat="44.22353" lon="5.1143">
        <ele>248.73486290563</ele>
        <time>2016-07-01T09:51:06Z</time>
      </trkpt>
      <trkpt lat="44.22349" lon="5.11409">
        <ele>249.3370724877</ele>
        <time>2016-07-01T09:51:10Z</time>
      </trkpt>
      <trkpt lat="44.22346" lon="5.11387">
        <ele>249.52305424149</ele>
        <time>2016-07-01T09:51:14Z</time>
      </trkpt>
      <trkpt lat="44.22343" lon="5.11364">
        <ele>249.48185899779</ele>
        <time>2016-07-01T09:51:18Z</time>
      </trkpt>
      <trkpt lat="44.22343" lon="5.11345">
        <ele>249.16658711397</ele>
        <time>2016-07-01T09:51:22Z</time>
      </trkpt>
      <trkpt lat="44.22348" lon="5.11325">
        <ele>249.88891326486</ele>
        <time>2016-07-01T09:51:26Z</time>
      </trkpt>
      <trkpt lat="44.22358" lon="5.11302">
        <ele>251.84311147496</ele>
        <time>2016-07-01T09:51:31Z</time>
      </trkpt>
      <trkpt lat="44.22371" lon="5.1128">
        <ele>253.92580949646</ele>
        <time>2016-07-01T09:51:36Z</time>
      </trkpt>
      <trkpt lat="44.2238" lon="5.1126">
        <ele>254.2950039819</ele>
        <time>2016-07-01T09:51:40Z</time>
      </trkpt>
      <trkpt lat="44.22386" lon="5.11242">
        <ele>254.4976018407</ele>
        <time>2016-07-01T09:51:44Z</time>
      </trkpt>
      <trkpt lat="44.22391" lon="5.11216">
        <ele>256.70302697934</ele>
        <time>2016-07-01T09:51:49Z</time>
      </trkpt>
      <trkpt lat="44.22395" lon="5.11194">
        <ele>258.4647769363</ele>
        <time>2016-07-01T09:51:53Z</time>
      </trkpt>
      <trkpt lat="44.22399" lon="5.11173">
        <ele>259.88183878968</ele>
        <time>2016-07-01T09:51:57Z</time>
      </trkpt>
      <trkpt lat="44.22402" lon="5.11155">
        <ele>260.12349163747</ele>
        <time>2016-07-01T09:52:01Z</time>
      </trkpt>
      <trkpt lat="44.22406" lon="5.11135">
        <ele>260.46468142929</ele>
        <time>2016-07-01T09:52:06Z</time>
      </trkpt>
      <trkpt lat="44.2241" lon="5.11118">
        <ele>260.93971573721</ele>
        <time>2016-07-01T09:52:10Z</time>
      </trkpt>
      <trkpt lat="44.22416" lon="5.11089">
        <ele>264.81438596955</ele>
        <time>2016-07-01T09:52:15Z</time>
      </trkpt>
      <trkpt lat="44.22423" lon="5.11056">
        <ele>264.04185061019</ele>
        <time>2016-07-01T09:52:20Z</time>
      </trkpt>
      <trkpt lat="44.2243" lon="5.11026">
        <ele>262.22231557745</ele>
        <time>2016-07-01T09:52:24Z</time>
      </trkpt>
      <trkpt lat="44.22444" lon="5.11004">
        <ele>261.42800698588</ele>
        <time>2016-07-01T09:52:28Z</time>
      </trkpt>
      <trkpt lat="44.22463" lon="5.10981">
        <ele>261.32416649337</ele>
        <time>2016-07-01T09:52:33Z</time>
      </trkpt>
      <trkpt lat="44.22481" lon="5.10966">
        <ele>260.50751026425</ele>
        <time>2016-07-01T09:52:37Z</time>
      </trkpt>
      <trkpt lat="44.22501" lon="5.1095">
        <ele>258.32685732436</ele>
        <time>2016-07-01T09:52:41Z</time>
      </trkpt>
      <trkpt lat="44.22522" lon="5.10939">
        <ele>256.85342152225</ele>
        <time>2016-07-01T09:52:45Z</time>
      </trkpt>
      <trkpt lat="44.22547" lon="5.10923">
        <ele>256.73394628011</ele>
        <time>2016-07-01T09:52:50Z</time>
      </trkpt>
      <trkpt lat="44.22568" lon="5.10905">
        <ele>257.55653063834</ele>
        <time>2016-07-01T09:52:55Z</time>
      </trkpt>
      <trkpt lat="44.22581" lon="5.10882">
        <ele>257.89666363421</ele>
        <time>2016-07-01T09:52:59Z</time>
      </trkpt>
      <trkpt lat="44.22586" lon="5.10843">
        <ele>257.91897625568</ele>
        <time>2016-07-01T09:53:04Z</time>
      </trkpt>
      <trkpt lat="44.22584" lon="5.10807">
        <ele>255.68913575994</ele>
        <time>2016-07-01T09:53:08Z</time>
      </trkpt>
      <trkpt lat="44.22588" lon="5.10761">
        <ele>253.0730618402</ele>
        <time>2016-07-01T09:53:13Z</time>
      </trkpt>
      <trkpt lat="44.22593" lon="5.10723">
        <ele>253.77911014262</ele>
        <time>2016-07-01T09:53:17Z</time>
      </trkpt>
      <trkpt lat="44.22609" lon="5.10673">
        <ele>253.82691555786</ele>
        <time>2016-07-01T09:53:22Z</time>
      </trkpt>
      <trkpt lat="44.22623" lon="5.10628">
        <ele>254.27832396187</ele>
        <time>2016-07-01T09:53:26Z</time>
      </trkpt>
      <trkpt lat="44.22634" lon="5.10594">
        <ele>252.36757447626</ele>
        <time>2016-07-01T09:53:30Z</time>
      </trkpt>
      <trkpt lat="44.22654" lon="5.10567">
        <ele>252.31458112081</ele>
        <time>2016-07-01T09:53:34Z</time>
      </trkpt>
      <trkpt lat="44.22683" lon="5.10548">
        <ele>249.71563633035</ele>
        <time>2016-07-01T09:53:38Z</time>
      </trkpt>
      <trkpt lat="44.227" lon="5.10508">
        <ele>247.45372626211</ele>
        <time>2016-07-01T09:53:43Z</time>
      </trkpt>
      <trkpt lat="44.2268" lon="5.10465">
        <ele>244.02027897593</ele>
        <time>2016-07-01T09:53:48Z</time>
      </trkpt>
      <trkpt lat="44.22657" lon="5.10434">
        <ele>241.09127034909</ele>
        <time>2016-07-01T09:53:52Z</time>
      </trkpt>
      <trkpt lat="44.22633" lon="5.10382">
        <ele>238.22351123567</ele>
        <time>2016-07-01T09:53:57Z</time>
      </trkpt>
      <trkpt lat="44.2263" lon="5.10334">
        <ele>237.75164207712</ele>
        <time>2016-07-01T09:54:01Z</time>
      </trkpt>
      <trkpt lat="44.22643" lon="5.10279">
        <ele>234.33277696453</ele>
        <time>2016-07-01T09:54:06Z</time>
      </trkpt>
      <trkpt lat="44.22659" lon="5.1024">
        <ele>229.60947661424</ele>
        <time>2016-07-01T09:54:10Z</time>
      </trkpt>
      <trkpt lat="44.22674" lon="5.10197">
        <ele>226.87065543839</ele>
        <time>2016-07-01T09:54:14Z</time>
      </trkpt>
      <trkpt lat="44.22687" lon="5.10159">
        <ele>224.86842558146</ele>
        <time>2016-07-01T09:54:18Z</time>
      </trkpt>
      <trkpt lat="44.22706" lon="5.10127">
        <ele>224.6066807078</ele>
        <time>2016-07-01T09:54:22Z</time>
      </trkpt>
      <trkpt lat="44.2273" lon="5.10092">
        <ele>226.37190258236</ele>
        <time>2016-07-01T09:54:27Z</time>
      </trkpt>
      <trkpt lat="44.22741" lon="5.10066">
        <ele>226.78979987472</ele>
        <time>2016-07-01T09:54:31Z</time>
      </trkpt>
      <trkpt lat="44.22754" lon="5.1004">
        <ele>227.51190889897</ele>
        <time>2016-07-01T09:54:36Z</time>
      </trkpt>
      <trkpt lat="44.22768" lon="5.10011">
        <ele>226.94242377174</ele>
        <time>2016-07-01T09:54:41Z</time>
      </trkpt>
      <trkpt lat="44.22782" lon="5.0999">
        <ele>225.77694233278</ele>
        <time>2016-07-01T09:54:45Z</time>
      </trkpt>
      <trkpt lat="44.22797" lon="5.09973">
        <ele>225.20858583208</ele>
        <time>2016-07-01T09:54:49Z</time>
      </trkpt>
      <trkpt lat="44.22814" lon="5.09959">
        <ele>223.67313809169</ele>
        <time>2016-07-01T09:54:53Z</time>
      </trkpt>
      <trkpt lat="44.22827" lon="5.09949">
        <ele>222.12290663284</ele>
        <time>2016-07-01T09:54:57Z</time>
      </trkpt>
      <trkpt lat="44.22843" lon="5.09934">
        <ele>223.24735862513</ele>
        <time>2016-07-01T09:55:01Z</time>
      </trkpt>
      <trkpt lat="44.22856" lon="5.09912">
        <ele>224.99999535544</ele>
        <time>2016-07-01T09:55:06Z</time>
      </trkpt>
      <trkpt lat="44.22866" lon="5.0989">
        <ele>224.85766774959</ele>
        <time>2016-07-01T09:55:10Z</time>
      </trkpt>
      <trkpt lat="44.22877" lon="5.0987">
        <ele>226.82513732962</ele>
        <time>2016-07-01T09:55:14Z</time>
      </trkpt>
      <trkpt lat="44.2289" lon="5.09853">
        <ele>227.42993936592</ele>
        <time>2016-07-01T09:55:19Z</time>
      </trkpt>
      <trkpt lat="44.22905" lon="5.09836">
        <ele>230.13840169503</ele>
        <time>2016-07-01T09:55:24Z</time>
      </trkpt>
      <trkpt lat="44.22917" lon="5.09822">
        <ele>230.98553138298</ele>
        <time>2016-07-01T09:55:28Z</time>
      </trkpt>
      <trkpt lat="44.22936" lon="5.09805">
        <ele>233.05606426267</ele>
        <time>2016-07-01T09:55:33Z</time>
      </trkpt>
      <trkpt lat="44.22951" lon="5.09789">
        <ele>234.45221733791</ele>
        <time>2016-07-01T09:55:37Z</time>
      </trkpt>
      <trkpt lat="44.22969" lon="5.0976">
        <ele>233.41525229367</ele>
        <time>2016-07-01T09:55:42Z</time>
      </trkpt>
      <trkpt lat="44.22981" lon="5.09742">
        <ele>234.32338662865</ele>
        <time>2016-07-01T09:55:46Z</time>
      </trkpt>
      <trkpt lat="44.22998" lon="5.09716">
        <ele>234.34748518165</ele>
        <time>2016-07-01T09:55:51Z</time>
      </trkpt>
      <trkpt lat="44.23014" lon="5.09698">
        <ele>234.66655178995</ele>
        <time>2016-07-01T09:55:55Z</time>
      </trkpt>
      <trkpt lat="44.23032" lon="5.0968">
        <ele>234.76544794521</ele>
        <time>2016-07-01T09:56:00Z</time>
      </trkpt>
      <trkpt lat="44.23046" lon="5.09672">
        <ele>234.91486524109</ele>
        <time>2016-07-01T09:56:04Z</time>
      </trkpt>
      <trkpt lat="44.23057" lon="5.09665">
        <ele>235.10399433699</ele>
        <time>2016-07-01T09:56:09Z</time>
      </trkpt>
      <trkpt lat="44.23059" lon="5.09647">
        <ele>235.52417465247</ele>
        <time>2016-07-01T09:56:13Z</time>
      </trkpt>
      <trkpt lat="44.23062" lon="5.09611">
        <ele>233.60314892237</ele>
        <time>2016-07-01T09:56:18Z</time>
      </trkpt>
      <trkpt lat="44.23068" lon="5.0958">
        <ele>232.29411461786</ele>
        <time>2016-07-01T09:56:22Z</time>
      </trkpt>
      <trkpt lat="44.23077" lon="5.09544">
        <ele>229.21491519205</ele>
        <time>2016-07-01T09:56:26Z</time>
      </trkpt>
      <trkpt lat="44.23085" lon="5.09514">
        <ele>227.09012115379</ele>
        <time>2016-07-01T09:56:30Z</time>
      </trkpt>
      <trkpt lat="44.23092" lon="5.09483">
        <ele>225.36581929498</ele>
        <time>2016-07-01T09:56:34Z</time>
      </trkpt>
      <trkpt lat="44.23098" lon="5.09453">
        <ele>225.82080319388</ele>
        <time>2016-07-01T09:56:39Z</time>
      </trkpt>
      <trkpt lat="44.23102" lon="5.09427">
        <ele>225.2353729292</ele>
        <time>2016-07-01T09:56:43Z</time>
      </trkpt>
      <trkpt lat="44.23106" lon="5.09396">
        <ele>224.36549172307</ele>
        <time>2016-07-01T09:56:47Z</time>
      </trkpt>
      <trkpt lat="44.23108" lon="5.09359">
        <ele>223.97625125003</ele>
        <time>2016-07-01T09:56:52Z</time>
      </trkpt>
      <trkpt lat="44.2311" lon="5.09332">
        <ele>224.17271733399</ele>
        <time>2016-07-01T09:56:56Z</time>
      </trkpt>
      <trkpt lat="44.2311" lon="5.09303">
        <ele>223.43257855605</ele>
        <time>2016-07-01T09:57:01Z</time>
      </trkpt>
      <trkpt lat="44.23112" lon="5.09274">
        <ele>223.47998238141</ele>
        <time>2016-07-01T09:57:05Z</time>
      </trkpt>
      <trkpt lat="44.23114" lon="5.09239">
        <ele>222.11785151699</ele>
        <time>2016-07-01T09:57:09Z</time>
      </trkpt>
      <trkpt lat="44.23117" lon="5.09192">
        <ele>219.92569629441</ele>
        <time>2016-07-01T09:57:14Z</time>
      </trkpt>
      <trkpt lat="44.2312" lon="5.09157">
        <ele>218.21377008905</ele>
        <time>2016-07-01T09:57:18Z</time>
      </trkpt>
      <trkpt lat="44.23123" lon="5.09116">
        <ele>217.28609216925</ele>
        <time>2016-07-01T09:57:23Z</time>
      </trkpt>
      <trkpt lat="44.23126" lon="5.0908">
        <ele>217.97012823615</ele>
        <time>2016-07-01T09:57:27Z</time>
      </trkpt>
      <trkpt lat="44.2313" lon="5.09035">
        <ele>218.52004994932</ele>
        <time>2016-07-01T09:57:32Z</time>
      </trkpt>
      <trkpt lat="44.23139" lon="5.09002">
        <ele>217.50096705509</ele>
        <time>2016-07-01T09:57:36Z</time>
      </trkpt>
      <trkpt lat="44.23163" lon="5.08984">
        <ele>217.98553049982</ele>
        <time>2016-07-01T09:57:40Z</time>
      </trkpt>
      <trkpt lat="44.23193" lon="5.08986">
        <ele>217.31672679087</ele>
        <time>2016-07-01T09:57:44Z</time>
      </trkpt>
      <trkpt lat="44.23219" lon="5.08993">
        <ele>215.83336766271</ele>
        <time>2016-07-01T09:57:48Z</time>
      </trkpt>
      <trkpt lat="44.23247" lon="5.09001">
        <ele>213.73491619587</ele>
        <time>2016-07-01T09:57:53Z</time>
      </trkpt>
      <trkpt lat="44.23269" lon="5.09">
        <ele>214.30037725148</ele>
        <time>2016-07-01T09:57:57Z</time>
      </trkpt>
      <trkpt lat="44.23295" lon="5.08991">
        <ele>214.49379654847</ele>
        <time>2016-07-01T09:58:02Z</time>
      </trkpt>
      <trkpt lat="44.23321" lon="5.08978">
        <ele>215.68255114047</ele>
        <time>2016-07-01T09:58:07Z</time>
      </trkpt>
      <trkpt lat="44.23344" lon="5.08957">
        <ele>214.13312439297</ele>
        <time>2016-07-01T09:58:12Z</time>
      </trkpt>
      <trkpt lat="44.23363" lon="5.08941">
        <ele>211.98949388369</ele>
        <time>2016-07-01T09:58:16Z</time>
      </trkpt>
      <trkpt lat="44.23376" lon="5.08928">
        <ele>212.03951429083</ele>
        <time>2016-07-01T09:58:21Z</time>
      </trkpt>
      <trkpt lat="44.23388" lon="5.08915">
        <ele>212.7627901779</ele>
        <time>2016-07-01T09:58:25Z</time>
      </trkpt>
      <trkpt lat="44.23403" lon="5.08914">
        <ele>213.44649379784</ele>
        <time>2016-07-01T09:58:29Z</time>
      </trkpt>
      <trkpt lat="44.23415" lon="5.08922">
        <ele>213.55659249094</ele>
        <time>2016-07-01T09:58:33Z</time>
      </trkpt>
      <trkpt lat="44.23425" lon="5.08938">
        <ele>213.66124270318</ele>
        <time>2016-07-01T09:58:38Z</time>
      </trkpt>
      <trkpt lat="44.23431" lon="5.08949">
        <ele>213.81573865484</ele>
        <time>2016-07-01T09:58:42Z</time>
      </trkpt>
      <trkpt lat="44.23432" lon="5.08962">
        <ele>214.00387383231</ele>
        <time>2016-07-01T09:58:47Z</time>
      </trkpt>
      <trkpt lat="44.23436" lon="5.08973">
        <ele>214.47813879112</ele>
        <time>2016-07-01T09:58:53Z</time>
      </trkpt>
      <trkpt lat="44.23441" lon="5.08981">
        <ele>214.80119891624</ele>
        <time>2016-07-01T09:58:58Z</time>
      </trkpt>
      <trkpt lat="44.23452" lon="5.08984">
        <ele>215.02685951615</ele>
        <time>2016-07-01T09:59:03Z</time>
      </trkpt>
      <trkpt lat="44.23456" lon="5.08967">
        <ele>215.4530610923</ele>
        <time>2016-07-01T09:59:08Z</time>
      </trkpt>
      <trkpt lat="44.23453" lon="5.08946">
        <ele>215.93414986386</ele>
        <time>2016-07-01T09:59:12Z</time>
      </trkpt>
      <trkpt lat="44.23452" lon="5.08931">
        <ele>215.80942274911</ele>
        <time>2016-07-01T09:59:16Z</time>
      </trkpt>
      <trkpt lat="44.23461" lon="5.08913">
        <ele>215.60037440463</ele>
        <time>2016-07-01T09:59:21Z</time>
      </trkpt>
      <trkpt lat="44.23472" lon="5.08899">
        <ele>215.44930733236</ele>
        <time>2016-07-01T09:59:25Z</time>
      </trkpt>
      <trkpt lat="44.23481" lon="5.08889">
        <ele>215.30669216307</ele>
        <time>2016-07-01T09:59:29Z</time>
      </trkpt>
      <trkpt lat="44.2349" lon="5.08881">
        <ele>215.12849786198</ele>
        <time>2016-07-01T09:59:33Z</time>
      </trkpt>
      <trkpt lat="44.23496" lon="5.08885">
        <ele>215.10058602848</ele>
        <time>2016-07-01T09:59:37Z</time>
      </trkpt>
      <trkpt lat="44.235" lon="5.08901">
        <ele>215.24695155169</ele>
        <time>2016-07-01T09:59:42Z</time>
      </trkpt>
      <trkpt lat="44.23503" lon="5.08911">
        <ele>215.37621461969</ele>
        <time>2016-07-01T09:59:47Z</time>
      </trkpt>
      <trkpt lat="44.23506" lon="5.08913">
        <ele>215.86184133548</ele>
        <time>2016-07-01T10:00:53Z</time>
      </trkpt>
      <trkpt lat="44.23506" lon="5.08913">
        <ele>215.86184133548</ele>
        <time>2016-07-01T10:00:54Z</time>
      </trkpt>
    </trkseg>
  </trk>
</gpx>